<?xml version="1.0" encoding="UTF-8" standalone="no" ?>
<gpx xmlns="http://www.topografix.com/GPX/1/1" xmlns:xsi="http://www.w3.org/2001/XMLSchema-instance" xsi:schemaLocation="http://www.topografix.com/GPX/1/1 http://www.topografix.com/GPX/1/1/gpx.xsd" version="1.1" creator="VisuGPX - https://www.visugpx.com">
  <metadata>
    <name>randonnée matinalebelle randonnée matinale</name>
    <desc><![CDATA[belle randonnée matinale aucune brume vue nette]]></desc>
  </metadata>
  <trk>
    <name><![CDATA[Tracé actuel: 17 JUIN 2019 08:27]]></name>
    <trkseg>
      <trkpt lat="49.63424" lon="4.97904">
        <ele>171.73</ele>
        <time>2019-06-17T06:27:11Z</time>
      </trkpt>
      <trkpt lat="49.63433" lon="4.979">
        <ele>168.37</ele>
        <time>2019-06-17T06:27:24Z</time>
      </trkpt>
      <trkpt lat="49.63446" lon="4.97897">
        <ele>167.41</ele>
        <time>2019-06-17T06:27:38Z</time>
      </trkpt>
      <trkpt lat="49.63448" lon="4.97897">
        <ele>166.93</ele>
        <time>2019-06-17T06:27:40Z</time>
      </trkpt>
      <trkpt lat="49.63461" lon="4.97888">
        <ele>167.41</ele>
        <time>2019-06-17T06:27:58Z</time>
      </trkpt>
      <trkpt lat="49.63481" lon="4.97858">
        <ele>170.77</ele>
        <time>2019-06-17T06:28:18Z</time>
      </trkpt>
      <trkpt lat="49.63495" lon="4.97841">
        <ele>177.02</ele>
        <time>2019-06-17T06:28:32Z</time>
      </trkpt>
      <trkpt lat="49.63509" lon="4.97814">
        <ele>175.1</ele>
        <time>2019-06-17T06:28:54Z</time>
      </trkpt>
      <trkpt lat="49.63524" lon="4.97798">
        <ele>172.21</ele>
        <time>2019-06-17T06:29:10Z</time>
      </trkpt>
      <trkpt lat="49.6354" lon="4.97782">
        <ele>161.16</ele>
        <time>2019-06-17T06:29:30Z</time>
      </trkpt>
      <trkpt lat="49.63547" lon="4.97769">
        <ele>160.68</ele>
        <time>2019-06-17T06:29:49Z</time>
      </trkpt>
      <trkpt lat="49.63555" lon="4.97746">
        <ele>162.6</ele>
        <time>2019-06-17T06:30:05Z</time>
      </trkpt>
      <trkpt lat="49.63564" lon="4.97718">
        <ele>164.04</ele>
        <time>2019-06-17T06:30:24Z</time>
      </trkpt>
      <trkpt lat="49.63576" lon="4.97698">
        <ele>166.93</ele>
        <time>2019-06-17T06:30:42Z</time>
      </trkpt>
      <trkpt lat="49.63585" lon="4.97678">
        <ele>167.89</ele>
        <time>2019-06-17T06:30:56Z</time>
      </trkpt>
      <trkpt lat="49.6359" lon="4.97671">
        <ele>169.33</ele>
        <time>2019-06-17T06:31:04Z</time>
      </trkpt>
      <trkpt lat="49.63605" lon="4.97663">
        <ele>179.42</ele>
        <time>2019-06-17T06:31:21Z</time>
      </trkpt>
      <trkpt lat="49.63614" lon="4.97665">
        <ele>181.35</ele>
        <time>2019-06-17T06:31:31Z</time>
      </trkpt>
      <trkpt lat="49.63632" lon="4.97687">
        <ele>174.14</ele>
        <time>2019-06-17T06:31:50Z</time>
      </trkpt>
      <trkpt lat="49.63651" lon="4.97703">
        <ele>171.25</ele>
        <time>2019-06-17T06:32:10Z</time>
      </trkpt>
      <trkpt lat="49.63655" lon="4.97707">
        <ele>170.29</ele>
        <time>2019-06-17T06:32:13Z</time>
      </trkpt>
      <trkpt lat="49.63667" lon="4.9772">
        <ele>166.93</ele>
        <time>2019-06-17T06:32:26Z</time>
      </trkpt>
      <trkpt lat="49.63686" lon="4.97733">
        <ele>165</ele>
        <time>2019-06-17T06:32:45Z</time>
      </trkpt>
      <trkpt lat="49.63702" lon="4.97744">
        <ele>163.08</ele>
        <time>2019-06-17T06:33:01Z</time>
      </trkpt>
      <trkpt lat="49.6372" lon="4.97764">
        <ele>160.68</ele>
        <time>2019-06-17T06:33:19Z</time>
      </trkpt>
      <trkpt lat="49.63736" lon="4.97774">
        <ele>163.08</ele>
        <time>2019-06-17T06:33:37Z</time>
      </trkpt>
      <trkpt lat="49.63755" lon="4.97784">
        <ele>164.52</ele>
        <time>2019-06-17T06:33:55Z</time>
      </trkpt>
      <trkpt lat="49.63776" lon="4.97802">
        <ele>160.68</ele>
        <time>2019-06-17T06:34:16Z</time>
      </trkpt>
      <trkpt lat="49.63781" lon="4.97806">
        <ele>160.2</ele>
        <time>2019-06-17T06:34:20Z</time>
      </trkpt>
      <trkpt lat="49.63793" lon="4.97821">
        <ele>158.27</ele>
        <time>2019-06-17T06:34:37Z</time>
      </trkpt>
      <trkpt lat="49.63811" lon="4.97837">
        <ele>156.83</ele>
        <time>2019-06-17T06:34:53Z</time>
      </trkpt>
      <trkpt lat="49.63828" lon="4.97857">
        <ele>153.95</ele>
        <time>2019-06-17T06:35:09Z</time>
      </trkpt>
      <trkpt lat="49.63843" lon="4.9787">
        <ele>149.62</ele>
        <time>2019-06-17T06:35:26Z</time>
      </trkpt>
      <trkpt lat="49.63858" lon="4.97887">
        <ele>146.26</ele>
        <time>2019-06-17T06:35:42Z</time>
      </trkpt>
      <trkpt lat="49.63875" lon="4.97905">
        <ele>147.22</ele>
        <time>2019-06-17T06:36:00Z</time>
      </trkpt>
      <trkpt lat="49.63891" lon="4.97917">
        <ele>148.18</ele>
        <time>2019-06-17T06:36:18Z</time>
      </trkpt>
      <trkpt lat="49.63909" lon="4.97932">
        <ele>150.1</ele>
        <time>2019-06-17T06:36:36Z</time>
      </trkpt>
      <trkpt lat="49.63926" lon="4.9795">
        <ele>150.1</ele>
        <time>2019-06-17T06:36:56Z</time>
      </trkpt>
      <trkpt lat="49.63942" lon="4.97961">
        <ele>150.1</ele>
        <time>2019-06-17T06:37:12Z</time>
      </trkpt>
      <trkpt lat="49.63954" lon="4.97973">
        <ele>149.62</ele>
        <time>2019-06-17T06:37:27Z</time>
      </trkpt>
      <trkpt lat="49.63973" lon="4.97996">
        <ele>152.03</ele>
        <time>2019-06-17T06:37:48Z</time>
      </trkpt>
      <trkpt lat="49.63992" lon="4.98007">
        <ele>152.99</ele>
        <time>2019-06-17T06:38:09Z</time>
      </trkpt>
      <trkpt lat="49.64013" lon="4.98031">
        <ele>148.66</ele>
        <time>2019-06-17T06:38:29Z</time>
      </trkpt>
      <trkpt lat="49.64029" lon="4.98047">
        <ele>147.7</ele>
        <time>2019-06-17T06:38:46Z</time>
      </trkpt>
      <trkpt lat="49.64046" lon="4.98062">
        <ele>147.22</ele>
        <time>2019-06-17T06:39:05Z</time>
      </trkpt>
      <trkpt lat="49.64066" lon="4.98083">
        <ele>145.78</ele>
        <time>2019-06-17T06:39:26Z</time>
      </trkpt>
      <trkpt lat="49.64074" lon="4.98089">
        <ele>145.3</ele>
        <time>2019-06-17T06:39:34Z</time>
      </trkpt>
      <trkpt lat="49.64094" lon="4.98106">
        <ele>144.34</ele>
        <time>2019-06-17T06:39:55Z</time>
      </trkpt>
      <trkpt lat="49.6411" lon="4.98121">
        <ele>142.89</ele>
        <time>2019-06-17T06:40:13Z</time>
      </trkpt>
      <trkpt lat="49.6413" lon="4.98143">
        <ele>145.3</ele>
        <time>2019-06-17T06:40:34Z</time>
      </trkpt>
      <trkpt lat="49.64145" lon="4.98162">
        <ele>142.89</ele>
        <time>2019-06-17T06:40:51Z</time>
      </trkpt>
      <trkpt lat="49.64162" lon="4.98184">
        <ele>136.64</ele>
        <time>2019-06-17T06:41:11Z</time>
      </trkpt>
      <trkpt lat="49.64179" lon="4.98202">
        <ele>135.68</ele>
        <time>2019-06-17T06:41:29Z</time>
      </trkpt>
      <trkpt lat="49.64199" lon="4.98206">
        <ele>135.2</ele>
        <time>2019-06-17T06:41:48Z</time>
      </trkpt>
      <trkpt lat="49.64215" lon="4.98221">
        <ele>142.89</ele>
        <time>2019-06-17T06:42:04Z</time>
      </trkpt>
      <trkpt lat="49.64234" lon="4.98239">
        <ele>149.14</ele>
        <time>2019-06-17T06:42:24Z</time>
      </trkpt>
      <trkpt lat="49.64253" lon="4.98253">
        <ele>149.62</ele>
        <time>2019-06-17T06:42:44Z</time>
      </trkpt>
      <trkpt lat="49.64269" lon="4.98271">
        <ele>150.1</ele>
        <time>2019-06-17T06:43:02Z</time>
      </trkpt>
      <trkpt lat="49.64286" lon="4.98289">
        <ele>151.06</ele>
        <time>2019-06-17T06:43:21Z</time>
      </trkpt>
      <trkpt lat="49.64304" lon="4.98303">
        <ele>152.03</ele>
        <time>2019-06-17T06:43:38Z</time>
      </trkpt>
      <trkpt lat="49.64306" lon="4.98304">
        <ele>151.54</ele>
        <time>2019-06-17T06:43:40Z</time>
      </trkpt>
      <trkpt lat="49.64324" lon="4.98318">
        <ele>150.1</ele>
        <time>2019-06-17T06:43:59Z</time>
      </trkpt>
      <trkpt lat="49.64344" lon="4.98336">
        <ele>151.06</ele>
        <time>2019-06-17T06:44:17Z</time>
      </trkpt>
      <trkpt lat="49.64364" lon="4.98353">
        <ele>153.47</ele>
        <time>2019-06-17T06:44:37Z</time>
      </trkpt>
      <trkpt lat="49.64382" lon="4.98366">
        <ele>156.35</ele>
        <time>2019-06-17T06:44:56Z</time>
      </trkpt>
      <trkpt lat="49.64398" lon="4.98375">
        <ele>158.27</ele>
        <time>2019-06-17T06:45:12Z</time>
      </trkpt>
      <trkpt lat="49.64415" lon="4.98387">
        <ele>160.68</ele>
        <time>2019-06-17T06:45:28Z</time>
      </trkpt>
      <trkpt lat="49.64432" lon="4.98397">
        <ele>165</ele>
        <time>2019-06-17T06:45:45Z</time>
      </trkpt>
      <trkpt lat="49.64452" lon="4.98406">
        <ele>166.45</ele>
        <time>2019-06-17T06:46:03Z</time>
      </trkpt>
      <trkpt lat="49.64467" lon="4.98421">
        <ele>167.89</ele>
        <time>2019-06-17T06:46:19Z</time>
      </trkpt>
      <trkpt lat="49.64487" lon="4.98436">
        <ele>165.48</ele>
        <time>2019-06-17T06:46:38Z</time>
      </trkpt>
      <trkpt lat="49.64508" lon="4.98446">
        <ele>162.12</ele>
        <time>2019-06-17T06:46:56Z</time>
      </trkpt>
      <trkpt lat="49.64523" lon="4.98456">
        <ele>161.64</ele>
        <time>2019-06-17T06:47:13Z</time>
      </trkpt>
      <trkpt lat="49.64541" lon="4.98464">
        <ele>162.6</ele>
        <time>2019-06-17T06:47:28Z</time>
      </trkpt>
      <trkpt lat="49.64565" lon="4.98475">
        <ele>163.08</ele>
        <time>2019-06-17T06:47:50Z</time>
      </trkpt>
      <trkpt lat="49.64582" lon="4.98485">
        <ele>164.04</ele>
        <time>2019-06-17T06:48:08Z</time>
      </trkpt>
      <trkpt lat="49.646" lon="4.98493">
        <ele>166.45</ele>
        <time>2019-06-17T06:48:24Z</time>
      </trkpt>
      <trkpt lat="49.64619" lon="4.98504">
        <ele>169.81</ele>
        <time>2019-06-17T06:48:43Z</time>
      </trkpt>
      <trkpt lat="49.64638" lon="4.98517">
        <ele>168.37</ele>
        <time>2019-06-17T06:49:01Z</time>
      </trkpt>
      <trkpt lat="49.64659" lon="4.98526">
        <ele>165.48</ele>
        <time>2019-06-17T06:49:19Z</time>
      </trkpt>
      <trkpt lat="49.64674" lon="4.98535">
        <ele>163.08</ele>
        <time>2019-06-17T06:49:33Z</time>
      </trkpt>
      <trkpt lat="49.64692" lon="4.98547">
        <ele>161.64</ele>
        <time>2019-06-17T06:49:52Z</time>
      </trkpt>
      <trkpt lat="49.64708" lon="4.98557">
        <ele>158.75</ele>
        <time>2019-06-17T06:50:07Z</time>
      </trkpt>
      <trkpt lat="49.64723" lon="4.98568">
        <ele>157.31</ele>
        <time>2019-06-17T06:50:23Z</time>
      </trkpt>
      <trkpt lat="49.64744" lon="4.98583">
        <ele>155.87</ele>
        <time>2019-06-17T06:50:41Z</time>
      </trkpt>
      <trkpt lat="49.64759" lon="4.98589">
        <ele>152.99</ele>
        <time>2019-06-17T06:50:56Z</time>
      </trkpt>
      <trkpt lat="49.6478" lon="4.98602">
        <ele>150.58</ele>
        <time>2019-06-17T06:51:15Z</time>
      </trkpt>
      <trkpt lat="49.64799" lon="4.98607">
        <ele>152.99</ele>
        <time>2019-06-17T06:51:33Z</time>
      </trkpt>
      <trkpt lat="49.64817" lon="4.98615">
        <ele>154.91</ele>
        <time>2019-06-17T06:51:51Z</time>
      </trkpt>
      <trkpt lat="49.64838" lon="4.98626">
        <ele>155.39</ele>
        <time>2019-06-17T06:52:10Z</time>
      </trkpt>
      <trkpt lat="49.64858" lon="4.9864">
        <ele>155.39</ele>
        <time>2019-06-17T06:52:30Z</time>
      </trkpt>
      <trkpt lat="49.64879" lon="4.98651">
        <ele>154.43</ele>
        <time>2019-06-17T06:52:49Z</time>
      </trkpt>
      <trkpt lat="49.64891" lon="4.9866">
        <ele>152.99</ele>
        <time>2019-06-17T06:53:00Z</time>
      </trkpt>
      <trkpt lat="49.64908" lon="4.98674">
        <ele>152.51</ele>
        <time>2019-06-17T06:53:19Z</time>
      </trkpt>
      <trkpt lat="49.64918" lon="4.98677">
        <ele>152.03</ele>
        <time>2019-06-17T06:53:27Z</time>
      </trkpt>
      <trkpt lat="49.64916" lon="4.98664">
        <ele>156.83</ele>
        <time>2019-06-17T06:53:38Z</time>
      </trkpt>
      <trkpt lat="49.649" lon="4.98646">
        <ele>159.72</ele>
        <time>2019-06-17T06:53:56Z</time>
      </trkpt>
      <trkpt lat="49.64887" lon="4.98625">
        <ele>162.12</ele>
        <time>2019-06-17T06:54:13Z</time>
      </trkpt>
      <trkpt lat="49.6488" lon="4.986">
        <ele>163.08</ele>
        <time>2019-06-17T06:54:29Z</time>
      </trkpt>
      <trkpt lat="49.64879" lon="4.98573">
        <ele>167.89</ele>
        <time>2019-06-17T06:54:45Z</time>
      </trkpt>
      <trkpt lat="49.64881" lon="4.98546">
        <ele>172.69</ele>
        <time>2019-06-17T06:55:01Z</time>
      </trkpt>
      <trkpt lat="49.64885" lon="4.98519">
        <ele>172.69</ele>
        <time>2019-06-17T06:55:18Z</time>
      </trkpt>
      <trkpt lat="49.64887" lon="4.98511">
        <ele>172.69</ele>
        <time>2019-06-17T06:55:36Z</time>
      </trkpt>
      <trkpt lat="49.64892" lon="4.98487">
        <ele>169.81</ele>
        <time>2019-06-17T06:55:52Z</time>
      </trkpt>
      <trkpt lat="49.64894" lon="4.9848">
        <ele>168.37</ele>
        <time>2019-06-17T06:55:57Z</time>
      </trkpt>
      <trkpt lat="49.64895" lon="4.98475">
        <ele>168.85</ele>
        <time>2019-06-17T06:56:00Z</time>
      </trkpt>
      <trkpt lat="49.64901" lon="4.9845">
        <ele>170.77</ele>
        <time>2019-06-17T06:56:18Z</time>
      </trkpt>
      <trkpt lat="49.64912" lon="4.98425">
        <ele>174.14</ele>
        <time>2019-06-17T06:56:35Z</time>
      </trkpt>
      <trkpt lat="49.6492" lon="4.98405">
        <ele>174.14</ele>
        <time>2019-06-17T06:56:51Z</time>
      </trkpt>
      <trkpt lat="49.64928" lon="4.98385">
        <ele>173.66</ele>
        <time>2019-06-17T06:57:05Z</time>
      </trkpt>
      <trkpt lat="49.64934" lon="4.98362">
        <ele>174.62</ele>
        <time>2019-06-17T06:57:21Z</time>
      </trkpt>
      <trkpt lat="49.64941" lon="4.98337">
        <ele>177.5</ele>
        <time>2019-06-17T06:57:37Z</time>
      </trkpt>
      <trkpt lat="49.64946" lon="4.98312">
        <ele>179.9</ele>
        <time>2019-06-17T06:57:52Z</time>
      </trkpt>
      <trkpt lat="49.64952" lon="4.98289">
        <ele>180.87</ele>
        <time>2019-06-17T06:58:07Z</time>
      </trkpt>
      <trkpt lat="49.64958" lon="4.98263">
        <ele>179.9</ele>
        <time>2019-06-17T06:58:24Z</time>
      </trkpt>
      <trkpt lat="49.64963" lon="4.98231">
        <ele>179.42</ele>
        <time>2019-06-17T06:58:43Z</time>
      </trkpt>
      <trkpt lat="49.64961" lon="4.98205">
        <ele>179.9</ele>
        <time>2019-06-17T06:58:59Z</time>
      </trkpt>
      <trkpt lat="49.64958" lon="4.98178">
        <ele>181.35</ele>
        <time>2019-06-17T06:59:16Z</time>
      </trkpt>
      <trkpt lat="49.64958" lon="4.98157">
        <ele>182.31</ele>
        <time>2019-06-17T06:59:28Z</time>
      </trkpt>
      <trkpt lat="49.64955" lon="4.98131">
        <ele>184.71</ele>
        <time>2019-06-17T06:59:44Z</time>
      </trkpt>
      <trkpt lat="49.6495" lon="4.98107">
        <ele>186.15</ele>
        <time>2019-06-17T07:00:00Z</time>
      </trkpt>
      <trkpt lat="49.64946" lon="4.98081">
        <ele>187.59</ele>
        <time>2019-06-17T07:00:16Z</time>
      </trkpt>
      <trkpt lat="49.6494" lon="4.98059">
        <ele>188.08</ele>
        <time>2019-06-17T07:00:31Z</time>
      </trkpt>
      <trkpt lat="49.6494" lon="4.98056">
        <ele>188.56</ele>
        <time>2019-06-17T07:00:33Z</time>
      </trkpt>
      <trkpt lat="49.64933" lon="4.98031">
        <ele>190.96</ele>
        <time>2019-06-17T07:00:49Z</time>
      </trkpt>
      <trkpt lat="49.64926" lon="4.98003">
        <ele>192.4</ele>
        <time>2019-06-17T07:01:07Z</time>
      </trkpt>
      <trkpt lat="49.64919" lon="4.97984">
        <ele>192.88</ele>
        <time>2019-06-17T07:01:21Z</time>
      </trkpt>
      <trkpt lat="49.64913" lon="4.9796">
        <ele>194.8</ele>
        <time>2019-06-17T07:01:36Z</time>
      </trkpt>
      <trkpt lat="49.64907" lon="4.97941">
        <ele>195.77</ele>
        <time>2019-06-17T07:01:50Z</time>
      </trkpt>
      <trkpt lat="49.64904" lon="4.97916">
        <ele>198.17</ele>
        <time>2019-06-17T07:02:04Z</time>
      </trkpt>
      <trkpt lat="49.649" lon="4.97885">
        <ele>201.53</ele>
        <time>2019-06-17T07:02:24Z</time>
      </trkpt>
      <trkpt lat="49.649" lon="4.97858">
        <ele>202.49</ele>
        <time>2019-06-17T07:02:40Z</time>
      </trkpt>
      <trkpt lat="49.64901" lon="4.97834">
        <ele>203.46</ele>
        <time>2019-06-17T07:02:55Z</time>
      </trkpt>
      <trkpt lat="49.649" lon="4.97806">
        <ele>205.38</ele>
        <time>2019-06-17T07:03:12Z</time>
      </trkpt>
      <trkpt lat="49.64899" lon="4.97782">
        <ele>207.3</ele>
        <time>2019-06-17T07:03:27Z</time>
      </trkpt>
      <trkpt lat="49.649" lon="4.97755">
        <ele>207.3</ele>
        <time>2019-06-17T07:03:43Z</time>
      </trkpt>
      <trkpt lat="49.64902" lon="4.9773">
        <ele>208.26</ele>
        <time>2019-06-17T07:03:59Z</time>
      </trkpt>
      <trkpt lat="49.64908" lon="4.97704">
        <ele>208.26</ele>
        <time>2019-06-17T07:04:16Z</time>
      </trkpt>
      <trkpt lat="49.64914" lon="4.97683">
        <ele>207.3</ele>
        <time>2019-06-17T07:04:30Z</time>
      </trkpt>
      <trkpt lat="49.64923" lon="4.97663">
        <ele>207.78</ele>
        <time>2019-06-17T07:04:44Z</time>
      </trkpt>
      <trkpt lat="49.64929" lon="4.97643">
        <ele>211.63</ele>
        <time>2019-06-17T07:04:59Z</time>
      </trkpt>
      <trkpt lat="49.64935" lon="4.97628">
        <ele>212.59</ele>
        <time>2019-06-17T07:05:10Z</time>
      </trkpt>
      <trkpt lat="49.64943" lon="4.97602">
        <ele>211.63</ele>
        <time>2019-06-17T07:05:27Z</time>
      </trkpt>
      <trkpt lat="49.64946" lon="4.97596">
        <ele>211.15</ele>
        <time>2019-06-17T07:05:32Z</time>
      </trkpt>
      <trkpt lat="49.6495" lon="4.97568">
        <ele>213.55</ele>
        <time>2019-06-17T07:05:49Z</time>
      </trkpt>
      <trkpt lat="49.64948" lon="4.9754">
        <ele>216.43</ele>
        <time>2019-06-17T07:06:06Z</time>
      </trkpt>
      <trkpt lat="49.64944" lon="4.97516">
        <ele>218.36</ele>
        <time>2019-06-17T07:06:21Z</time>
      </trkpt>
      <trkpt lat="49.64938" lon="4.97494">
        <ele>218.36</ele>
        <time>2019-06-17T07:06:36Z</time>
      </trkpt>
      <trkpt lat="49.64928" lon="4.97473">
        <ele>220.76</ele>
        <time>2019-06-17T07:06:53Z</time>
      </trkpt>
      <trkpt lat="49.64917" lon="4.97453">
        <ele>223.64</ele>
        <time>2019-06-17T07:07:10Z</time>
      </trkpt>
      <trkpt lat="49.64913" lon="4.97445">
        <ele>224.12</ele>
        <time>2019-06-17T07:07:15Z</time>
      </trkpt>
      <trkpt lat="49.64909" lon="4.97438">
        <ele>226.05</ele>
        <time>2019-06-17T07:07:21Z</time>
      </trkpt>
      <trkpt lat="49.64897" lon="4.9742">
        <ele>228.93</ele>
        <time>2019-06-17T07:07:36Z</time>
      </trkpt>
      <trkpt lat="49.64885" lon="4.97403">
        <ele>231.33</ele>
        <time>2019-06-17T07:07:52Z</time>
      </trkpt>
      <trkpt lat="49.64869" lon="4.97387">
        <ele>233.26</ele>
        <time>2019-06-17T07:08:09Z</time>
      </trkpt>
      <trkpt lat="49.64853" lon="4.97371">
        <ele>234.22</ele>
        <time>2019-06-17T07:08:27Z</time>
      </trkpt>
      <trkpt lat="49.64837" lon="4.97357">
        <ele>236.62</ele>
        <time>2019-06-17T07:08:43Z</time>
      </trkpt>
      <trkpt lat="49.64823" lon="4.97344">
        <ele>237.1</ele>
        <time>2019-06-17T07:08:58Z</time>
      </trkpt>
      <trkpt lat="49.64809" lon="4.9733">
        <ele>236.62</ele>
        <time>2019-06-17T07:09:14Z</time>
      </trkpt>
      <trkpt lat="49.64793" lon="4.97312">
        <ele>238.06</ele>
        <time>2019-06-17T07:09:31Z</time>
      </trkpt>
      <trkpt lat="49.6478" lon="4.97298">
        <ele>240.47</ele>
        <time>2019-06-17T07:09:47Z</time>
      </trkpt>
      <trkpt lat="49.64767" lon="4.9728">
        <ele>240.47</ele>
        <time>2019-06-17T07:10:03Z</time>
      </trkpt>
      <trkpt lat="49.64758" lon="4.97267">
        <ele>240.47</ele>
        <time>2019-06-17T07:10:14Z</time>
      </trkpt>
      <trkpt lat="49.64744" lon="4.97248">
        <ele>240.47</ele>
        <time>2019-06-17T07:10:30Z</time>
      </trkpt>
      <trkpt lat="49.64736" lon="4.97236">
        <ele>240.95</ele>
        <time>2019-06-17T07:10:44Z</time>
      </trkpt>
      <trkpt lat="49.64723" lon="4.97221">
        <ele>240.95</ele>
        <time>2019-06-17T07:11:00Z</time>
      </trkpt>
      <trkpt lat="49.64711" lon="4.97201">
        <ele>241.43</ele>
        <time>2019-06-17T07:11:17Z</time>
      </trkpt>
      <trkpt lat="49.64696" lon="4.97183">
        <ele>240.95</ele>
        <time>2019-06-17T07:11:35Z</time>
      </trkpt>
      <trkpt lat="49.64694" lon="4.97182">
        <ele>240.95</ele>
        <time>2019-06-17T07:11:37Z</time>
      </trkpt>
      <trkpt lat="49.64687" lon="4.97185">
        <ele>239.51</ele>
        <time>2019-06-17T07:11:45Z</time>
      </trkpt>
      <trkpt lat="49.64679" lon="4.97205">
        <ele>235.66</ele>
        <time>2019-06-17T07:12:03Z</time>
      </trkpt>
      <trkpt lat="49.64675" lon="4.97216">
        <ele>231.81</ele>
        <time>2019-06-17T07:12:13Z</time>
      </trkpt>
      <trkpt lat="49.64669" lon="4.97235">
        <ele>229.89</ele>
        <time>2019-06-17T07:12:29Z</time>
      </trkpt>
      <trkpt lat="49.64659" lon="4.97256">
        <ele>232.78</ele>
        <time>2019-06-17T07:12:45Z</time>
      </trkpt>
      <trkpt lat="49.64651" lon="4.97282">
        <ele>231.33</ele>
        <time>2019-06-17T07:13:03Z</time>
      </trkpt>
      <trkpt lat="49.64642" lon="4.97305">
        <ele>230.37</ele>
        <time>2019-06-17T07:13:19Z</time>
      </trkpt>
      <trkpt lat="49.64631" lon="4.97326">
        <ele>229.89</ele>
        <time>2019-06-17T07:13:36Z</time>
      </trkpt>
      <trkpt lat="49.64621" lon="4.97353">
        <ele>228.93</ele>
        <time>2019-06-17T07:13:55Z</time>
      </trkpt>
      <trkpt lat="49.64611" lon="4.97377">
        <ele>226.53</ele>
        <time>2019-06-17T07:14:12Z</time>
      </trkpt>
      <trkpt lat="49.64603" lon="4.97399">
        <ele>225.57</ele>
        <time>2019-06-17T07:14:30Z</time>
      </trkpt>
      <trkpt lat="49.64596" lon="4.97421">
        <ele>222.68</ele>
        <time>2019-06-17T07:14:46Z</time>
      </trkpt>
      <trkpt lat="49.64589" lon="4.97441">
        <ele>218.36</ele>
        <time>2019-06-17T07:15:03Z</time>
      </trkpt>
      <trkpt lat="49.64576" lon="4.97473">
        <ele>215.95</ele>
        <time>2019-06-17T07:15:26Z</time>
      </trkpt>
      <trkpt lat="49.64565" lon="4.97501">
        <ele>213.55</ele>
        <time>2019-06-17T07:15:48Z</time>
      </trkpt>
      <trkpt lat="49.64557" lon="4.97513">
        <ele>212.59</ele>
        <time>2019-06-17T07:16:00Z</time>
      </trkpt>
      <trkpt lat="49.64549" lon="4.97532">
        <ele>212.11</ele>
        <time>2019-06-17T07:16:16Z</time>
      </trkpt>
      <trkpt lat="49.64538" lon="4.97559">
        <ele>210.67</ele>
        <time>2019-06-17T07:16:36Z</time>
      </trkpt>
      <trkpt lat="49.64528" lon="4.97583">
        <ele>208.74</ele>
        <time>2019-06-17T07:16:55Z</time>
      </trkpt>
      <trkpt lat="49.64517" lon="4.9761">
        <ele>206.82</ele>
        <time>2019-06-17T07:17:16Z</time>
      </trkpt>
      <trkpt lat="49.64506" lon="4.97636">
        <ele>204.42</ele>
        <time>2019-06-17T07:17:35Z</time>
      </trkpt>
      <trkpt lat="49.64496" lon="4.97658">
        <ele>204.9</ele>
        <time>2019-06-17T07:17:54Z</time>
      </trkpt>
      <trkpt lat="49.64489" lon="4.97677">
        <ele>204.42</ele>
        <time>2019-06-17T07:18:09Z</time>
      </trkpt>
      <trkpt lat="49.64485" lon="4.97686">
        <ele>204.9</ele>
        <time>2019-06-17T07:18:19Z</time>
      </trkpt>
      <trkpt lat="49.64477" lon="4.97702">
        <ele>202.98</ele>
        <time>2019-06-17T07:18:32Z</time>
      </trkpt>
      <trkpt lat="49.6447" lon="4.97722">
        <ele>201.53</ele>
        <time>2019-06-17T07:18:49Z</time>
      </trkpt>
      <trkpt lat="49.6446" lon="4.97747">
        <ele>200.09</ele>
        <time>2019-06-17T07:19:08Z</time>
      </trkpt>
      <trkpt lat="49.64455" lon="4.97757">
        <ele>199.61</ele>
        <time>2019-06-17T07:19:17Z</time>
      </trkpt>
      <trkpt lat="49.64446" lon="4.97762">
        <ele>199.13</ele>
        <time>2019-06-17T07:19:24Z</time>
      </trkpt>
      <trkpt lat="49.64436" lon="4.97757">
        <ele>197.21</ele>
        <time>2019-06-17T07:19:37Z</time>
      </trkpt>
      <trkpt lat="49.64421" lon="4.97745">
        <ele>194.32</ele>
        <time>2019-06-17T07:19:52Z</time>
      </trkpt>
      <trkpt lat="49.64403" lon="4.97731">
        <ele>196.25</ele>
        <time>2019-06-17T07:20:10Z</time>
      </trkpt>
      <trkpt lat="49.64388" lon="4.9772">
        <ele>194.32</ele>
        <time>2019-06-17T07:20:25Z</time>
      </trkpt>
      <trkpt lat="49.64373" lon="4.97706">
        <ele>194.8</ele>
        <time>2019-06-17T07:20:43Z</time>
      </trkpt>
      <trkpt lat="49.6436" lon="4.97695">
        <ele>194.8</ele>
        <time>2019-06-17T07:20:56Z</time>
      </trkpt>
      <trkpt lat="49.64355" lon="4.97692">
        <ele>194.32</ele>
        <time>2019-06-17T07:21:01Z</time>
      </trkpt>
      <trkpt lat="49.64341" lon="4.97682">
        <ele>193.84</ele>
        <time>2019-06-17T07:21:17Z</time>
      </trkpt>
      <trkpt lat="49.64324" lon="4.97669">
        <ele>195.28</ele>
        <time>2019-06-17T07:21:34Z</time>
      </trkpt>
      <trkpt lat="49.64308" lon="4.97653">
        <ele>194.8</ele>
        <time>2019-06-17T07:21:53Z</time>
      </trkpt>
      <trkpt lat="49.64292" lon="4.9764">
        <ele>193.36</ele>
        <time>2019-06-17T07:22:10Z</time>
      </trkpt>
      <trkpt lat="49.6428" lon="4.97632">
        <ele>191.44</ele>
        <time>2019-06-17T07:22:22Z</time>
      </trkpt>
      <trkpt lat="49.64274" lon="4.97637">
        <ele>190.48</ele>
        <time>2019-06-17T07:22:32Z</time>
      </trkpt>
      <trkpt lat="49.64272" lon="4.97642">
        <ele>191.44</ele>
        <time>2019-06-17T07:22:36Z</time>
      </trkpt>
      <trkpt lat="49.64265" lon="4.97662">
        <ele>191.92</ele>
        <time>2019-06-17T07:22:51Z</time>
      </trkpt>
      <trkpt lat="49.64261" lon="4.97675">
        <ele>191.44</ele>
        <time>2019-06-17T07:23:04Z</time>
      </trkpt>
      <trkpt lat="49.64253" lon="4.97698">
        <ele>188.08</ele>
        <time>2019-06-17T07:23:20Z</time>
      </trkpt>
      <trkpt lat="49.64245" lon="4.97721">
        <ele>186.15</ele>
        <time>2019-06-17T07:23:38Z</time>
      </trkpt>
      <trkpt lat="49.64237" lon="4.97744">
        <ele>183.75</ele>
        <time>2019-06-17T07:23:54Z</time>
      </trkpt>
      <trkpt lat="49.64229" lon="4.97764">
        <ele>182.31</ele>
        <time>2019-06-17T07:24:10Z</time>
      </trkpt>
      <trkpt lat="49.64216" lon="4.9779">
        <ele>184.71</ele>
        <time>2019-06-17T07:24:27Z</time>
      </trkpt>
      <trkpt lat="49.64211" lon="4.97803">
        <ele>185.67</ele>
        <time>2019-06-17T07:24:37Z</time>
      </trkpt>
      <trkpt lat="49.64199" lon="4.97819">
        <ele>181.83</ele>
        <time>2019-06-17T07:24:53Z</time>
      </trkpt>
      <trkpt lat="49.64189" lon="4.97812">
        <ele>179.9</ele>
        <time>2019-06-17T07:25:03Z</time>
      </trkpt>
      <trkpt lat="49.64184" lon="4.97806">
        <ele>178.46</ele>
        <time>2019-06-17T07:25:08Z</time>
      </trkpt>
      <trkpt lat="49.64168" lon="4.97781">
        <ele>172.69</ele>
        <time>2019-06-17T07:25:26Z</time>
      </trkpt>
      <trkpt lat="49.64152" lon="4.97763">
        <ele>173.17</ele>
        <time>2019-06-17T07:25:44Z</time>
      </trkpt>
      <trkpt lat="49.64139" lon="4.97743">
        <ele>173.17</ele>
        <time>2019-06-17T07:25:59Z</time>
      </trkpt>
      <trkpt lat="49.64126" lon="4.97724">
        <ele>170.29</ele>
        <time>2019-06-17T07:26:15Z</time>
      </trkpt>
      <trkpt lat="49.64114" lon="4.97703">
        <ele>168.85</ele>
        <time>2019-06-17T07:26:29Z</time>
      </trkpt>
      <trkpt lat="49.64102" lon="4.97684">
        <ele>166.93</ele>
        <time>2019-06-17T07:26:45Z</time>
      </trkpt>
      <trkpt lat="49.64097" lon="4.97674">
        <ele>167.89</ele>
        <time>2019-06-17T07:26:52Z</time>
      </trkpt>
      <trkpt lat="49.64082" lon="4.97647">
        <ele>165</ele>
        <time>2019-06-17T07:27:12Z</time>
      </trkpt>
      <trkpt lat="49.64068" lon="4.97618">
        <ele>167.41</ele>
        <time>2019-06-17T07:27:31Z</time>
      </trkpt>
      <trkpt lat="49.64055" lon="4.976">
        <ele>163.56</ele>
        <time>2019-06-17T07:27:46Z</time>
      </trkpt>
      <trkpt lat="49.6404" lon="4.97585">
        <ele>161.16</ele>
        <time>2019-06-17T07:28:03Z</time>
      </trkpt>
      <trkpt lat="49.64021" lon="4.97582">
        <ele>159.72</ele>
        <time>2019-06-17T07:28:18Z</time>
      </trkpt>
      <trkpt lat="49.64003" lon="4.97582">
        <ele>163.56</ele>
        <time>2019-06-17T07:28:34Z</time>
      </trkpt>
      <trkpt lat="49.63982" lon="4.97578">
        <ele>166.93</ele>
        <time>2019-06-17T07:28:51Z</time>
      </trkpt>
      <trkpt lat="49.63959" lon="4.97574">
        <ele>170.29</ele>
        <time>2019-06-17T07:29:09Z</time>
      </trkpt>
      <trkpt lat="49.63939" lon="4.97565">
        <ele>171.73</ele>
        <time>2019-06-17T07:29:27Z</time>
      </trkpt>
      <trkpt lat="49.63932" lon="4.97561">
        <ele>173.17</ele>
        <time>2019-06-17T07:29:34Z</time>
      </trkpt>
      <trkpt lat="49.63914" lon="4.97548">
        <ele>174.62</ele>
        <time>2019-06-17T07:29:49Z</time>
      </trkpt>
      <trkpt lat="49.63893" lon="4.97536">
        <ele>172.21</ele>
        <time>2019-06-17T07:30:09Z</time>
      </trkpt>
      <trkpt lat="49.63877" lon="4.97525">
        <ele>171.73</ele>
        <time>2019-06-17T07:30:24Z</time>
      </trkpt>
      <trkpt lat="49.63867" lon="4.97526">
        <ele>170.29</ele>
        <time>2019-06-17T07:30:33Z</time>
      </trkpt>
      <trkpt lat="49.63855" lon="4.97537">
        <ele>168.37</ele>
        <time>2019-06-17T07:30:48Z</time>
      </trkpt>
      <trkpt lat="49.63847" lon="4.97561">
        <ele>166.93</ele>
        <time>2019-06-17T07:31:05Z</time>
      </trkpt>
      <trkpt lat="49.63846" lon="4.97585">
        <ele>168.37</ele>
        <time>2019-06-17T07:31:21Z</time>
      </trkpt>
      <trkpt lat="49.63843" lon="4.976">
        <ele>168.37</ele>
        <time>2019-06-17T07:31:32Z</time>
      </trkpt>
      <trkpt lat="49.63834" lon="4.97629">
        <ele>167.41</ele>
        <time>2019-06-17T07:31:49Z</time>
      </trkpt>
      <trkpt lat="49.63824" lon="4.97652">
        <ele>167.89</ele>
        <time>2019-06-17T07:32:06Z</time>
      </trkpt>
      <trkpt lat="49.63801" lon="4.97669">
        <ele>169.33</ele>
        <time>2019-06-17T07:32:25Z</time>
      </trkpt>
      <trkpt lat="49.63784" lon="4.97677">
        <ele>163.56</ele>
        <time>2019-06-17T07:32:42Z</time>
      </trkpt>
      <trkpt lat="49.63774" lon="4.97678">
        <ele>162.12</ele>
        <time>2019-06-17T07:32:50Z</time>
      </trkpt>
      <trkpt lat="49.63755" lon="4.97678">
        <ele>162.6</ele>
        <time>2019-06-17T07:33:08Z</time>
      </trkpt>
      <trkpt lat="49.63732" lon="4.97675">
        <ele>162.6</ele>
        <time>2019-06-17T07:33:27Z</time>
      </trkpt>
      <trkpt lat="49.63712" lon="4.9767">
        <ele>163.08</ele>
        <time>2019-06-17T07:33:44Z</time>
      </trkpt>
      <trkpt lat="49.63693" lon="4.97663">
        <ele>162.6</ele>
        <time>2019-06-17T07:34:02Z</time>
      </trkpt>
      <trkpt lat="49.63688" lon="4.97659">
        <ele>163.08</ele>
        <time>2019-06-17T07:34:07Z</time>
      </trkpt>
      <trkpt lat="49.63677" lon="4.97653">
        <ele>164.04</ele>
        <time>2019-06-17T07:34:23Z</time>
      </trkpt>
      <trkpt lat="49.63671" lon="4.97652">
        <ele>163.56</ele>
        <time>2019-06-17T07:34:29Z</time>
      </trkpt>
      <trkpt lat="49.63651" lon="4.97638">
        <ele>163.08</ele>
        <time>2019-06-17T07:34:50Z</time>
      </trkpt>
      <trkpt lat="49.6365" lon="4.97637">
        <ele>163.56</ele>
        <time>2019-06-17T07:34:51Z</time>
      </trkpt>
      <trkpt lat="49.63644" lon="4.97635">
        <ele>166.45</ele>
        <time>2019-06-17T07:35:02Z</time>
      </trkpt>
      <trkpt lat="49.63648" lon="4.97616">
        <ele>175.58</ele>
        <time>2019-06-17T07:35:18Z</time>
      </trkpt>
      <trkpt lat="49.63648" lon="4.97614">
        <ele>176.06</ele>
        <time>2019-06-17T07:35:20Z</time>
      </trkpt>
      <trkpt lat="49.63654" lon="4.97588">
        <ele>181.35</ele>
        <time>2019-06-17T07:35:35Z</time>
      </trkpt>
      <trkpt lat="49.63656" lon="4.97575">
        <ele>185.19</ele>
        <time>2019-06-17T07:35:41Z</time>
      </trkpt>
      <trkpt lat="49.63653" lon="4.97546">
        <ele>199.13</ele>
        <time>2019-06-17T07:35:59Z</time>
      </trkpt>
      <trkpt lat="49.63649" lon="4.97512">
        <ele>200.09</ele>
        <time>2019-06-17T07:36:17Z</time>
      </trkpt>
      <trkpt lat="49.63646" lon="4.97481">
        <ele>196.25</ele>
        <time>2019-06-17T07:36:34Z</time>
      </trkpt>
      <trkpt lat="49.63648" lon="4.9745">
        <ele>192.4</ele>
        <time>2019-06-17T07:36:53Z</time>
      </trkpt>
      <trkpt lat="49.6364" lon="4.97418">
        <ele>192.4</ele>
        <time>2019-06-17T07:37:11Z</time>
      </trkpt>
      <trkpt lat="49.63628" lon="4.97404">
        <ele>188.08</ele>
        <time>2019-06-17T07:37:26Z</time>
      </trkpt>
      <trkpt lat="49.6361" lon="4.97388">
        <ele>189.52</ele>
        <time>2019-06-17T07:37:45Z</time>
      </trkpt>
      <trkpt lat="49.63588" lon="4.97361">
        <ele>192.88</ele>
        <time>2019-06-17T07:38:06Z</time>
      </trkpt>
      <trkpt lat="49.63585" lon="4.97357">
        <ele>192.88</ele>
        <time>2019-06-17T07:38:09Z</time>
      </trkpt>
      <trkpt lat="49.63566" lon="4.97338">
        <ele>192.88</ele>
        <time>2019-06-17T07:38:27Z</time>
      </trkpt>
      <trkpt lat="49.63561" lon="4.97328">
        <ele>193.36</ele>
        <time>2019-06-17T07:38:36Z</time>
      </trkpt>
      <trkpt lat="49.63549" lon="4.97289">
        <ele>193.36</ele>
        <time>2019-06-17T07:38:57Z</time>
      </trkpt>
      <trkpt lat="49.63542" lon="4.9726">
        <ele>193.84</ele>
        <time>2019-06-17T07:39:17Z</time>
      </trkpt>
      <trkpt lat="49.63533" lon="4.97227">
        <ele>192.88</ele>
        <time>2019-06-17T07:39:36Z</time>
      </trkpt>
      <trkpt lat="49.63524" lon="4.97197">
        <ele>190.96</ele>
        <time>2019-06-17T07:39:54Z</time>
      </trkpt>
      <trkpt lat="49.63514" lon="4.97161">
        <ele>189.52</ele>
        <time>2019-06-17T07:40:17Z</time>
      </trkpt>
      <trkpt lat="49.63505" lon="4.97133">
        <ele>187.11</ele>
        <time>2019-06-17T07:40:34Z</time>
      </trkpt>
      <trkpt lat="49.63498" lon="4.97102">
        <ele>186.63</ele>
        <time>2019-06-17T07:40:53Z</time>
      </trkpt>
      <trkpt lat="49.6349" lon="4.97073">
        <ele>185.67</ele>
        <time>2019-06-17T07:41:12Z</time>
      </trkpt>
      <trkpt lat="49.63481" lon="4.97045">
        <ele>186.15</ele>
        <time>2019-06-17T07:41:30Z</time>
      </trkpt>
      <trkpt lat="49.63472" lon="4.97014">
        <ele>182.31</ele>
        <time>2019-06-17T07:41:52Z</time>
      </trkpt>
      <trkpt lat="49.63468" lon="4.96977">
        <ele>178.46</ele>
        <time>2019-06-17T07:42:14Z</time>
      </trkpt>
      <trkpt lat="49.63457" lon="4.96948">
        <ele>176.54</ele>
        <time>2019-06-17T07:42:33Z</time>
      </trkpt>
      <trkpt lat="49.63449" lon="4.96933">
        <ele>177.02</ele>
        <time>2019-06-17T07:42:45Z</time>
      </trkpt>
      <trkpt lat="49.63433" lon="4.96911">
        <ele>177.02</ele>
        <time>2019-06-17T07:43:03Z</time>
      </trkpt>
      <trkpt lat="49.63418" lon="4.96892">
        <ele>178.46</ele>
        <time>2019-06-17T07:43:21Z</time>
      </trkpt>
      <trkpt lat="49.63405" lon="4.96877">
        <ele>177.02</ele>
        <time>2019-06-17T07:43:38Z</time>
      </trkpt>
      <trkpt lat="49.6339" lon="4.96859">
        <ele>174.14</ele>
        <time>2019-06-17T07:43:57Z</time>
      </trkpt>
      <trkpt lat="49.63375" lon="4.96841">
        <ele>176.54</ele>
        <time>2019-06-17T07:44:14Z</time>
      </trkpt>
      <trkpt lat="49.63362" lon="4.96824">
        <ele>176.06</ele>
        <time>2019-06-17T07:44:29Z</time>
      </trkpt>
      <trkpt lat="49.6335" lon="4.96806">
        <ele>176.06</ele>
        <time>2019-06-17T07:44:45Z</time>
      </trkpt>
      <trkpt lat="49.6334" lon="4.96785">
        <ele>177.5</ele>
        <time>2019-06-17T07:45:01Z</time>
      </trkpt>
      <trkpt lat="49.63335" lon="4.96766">
        <ele>179.42</ele>
        <time>2019-06-17T07:45:17Z</time>
      </trkpt>
      <trkpt lat="49.63334" lon="4.96739">
        <ele>178.46</ele>
        <time>2019-06-17T07:45:33Z</time>
      </trkpt>
      <trkpt lat="49.63333" lon="4.96734">
        <ele>177.98</ele>
        <time>2019-06-17T07:45:36Z</time>
      </trkpt>
      <trkpt lat="49.63325" lon="4.967">
        <ele>179.9</ele>
        <time>2019-06-17T07:45:58Z</time>
      </trkpt>
      <trkpt lat="49.63309" lon="4.96674">
        <ele>179.9</ele>
        <time>2019-06-17T07:46:17Z</time>
      </trkpt>
      <trkpt lat="49.63294" lon="4.9665">
        <ele>183.75</ele>
        <time>2019-06-17T07:46:34Z</time>
      </trkpt>
      <trkpt lat="49.63287" lon="4.96634">
        <ele>183.27</ele>
        <time>2019-06-17T07:46:46Z</time>
      </trkpt>
      <trkpt lat="49.63281" lon="4.96608">
        <ele>181.35</ele>
        <time>2019-06-17T07:47:02Z</time>
      </trkpt>
      <trkpt lat="49.63266" lon="4.96593">
        <ele>180.38</ele>
        <time>2019-06-17T07:47:18Z</time>
      </trkpt>
      <trkpt lat="49.63247" lon="4.96578">
        <ele>179.42</ele>
        <time>2019-06-17T07:47:37Z</time>
      </trkpt>
      <trkpt lat="49.63227" lon="4.96559">
        <ele>179.42</ele>
        <time>2019-06-17T07:47:55Z</time>
      </trkpt>
      <trkpt lat="49.6321" lon="4.96545">
        <ele>178.94</ele>
        <time>2019-06-17T07:48:12Z</time>
      </trkpt>
      <trkpt lat="49.6319" lon="4.96533">
        <ele>179.42</ele>
        <time>2019-06-17T07:48:30Z</time>
      </trkpt>
      <trkpt lat="49.6317" lon="4.96522">
        <ele>179.42</ele>
        <time>2019-06-17T07:48:49Z</time>
      </trkpt>
      <trkpt lat="49.63168" lon="4.96521">
        <ele>179.42</ele>
        <time>2019-06-17T07:48:51Z</time>
      </trkpt>
      <trkpt lat="49.63143" lon="4.96505">
        <ele>180.38</ele>
        <time>2019-06-17T07:49:11Z</time>
      </trkpt>
      <trkpt lat="49.6312" lon="4.96492">
        <ele>179.9</ele>
        <time>2019-06-17T07:49:32Z</time>
      </trkpt>
      <trkpt lat="49.63104" lon="4.96482">
        <ele>180.87</ele>
        <time>2019-06-17T07:49:49Z</time>
      </trkpt>
      <trkpt lat="49.63082" lon="4.96467">
        <ele>181.83</ele>
        <time>2019-06-17T07:50:09Z</time>
      </trkpt>
      <trkpt lat="49.63059" lon="4.96452">
        <ele>182.31</ele>
        <time>2019-06-17T07:50:28Z</time>
      </trkpt>
      <trkpt lat="49.63042" lon="4.96441">
        <ele>183.27</ele>
        <time>2019-06-17T07:50:45Z</time>
      </trkpt>
      <trkpt lat="49.63022" lon="4.96428">
        <ele>184.71</ele>
        <time>2019-06-17T07:51:04Z</time>
      </trkpt>
      <trkpt lat="49.63002" lon="4.96412">
        <ele>186.15</ele>
        <time>2019-06-17T07:51:23Z</time>
      </trkpt>
      <trkpt lat="49.62985" lon="4.96403">
        <ele>187.11</ele>
        <time>2019-06-17T07:51:40Z</time>
      </trkpt>
      <trkpt lat="49.62967" lon="4.96389">
        <ele>189.04</ele>
        <time>2019-06-17T07:51:56Z</time>
      </trkpt>
      <trkpt lat="49.62957" lon="4.96383">
        <ele>190.48</ele>
        <time>2019-06-17T07:52:07Z</time>
      </trkpt>
      <trkpt lat="49.62938" lon="4.96366">
        <ele>190.96</ele>
        <time>2019-06-17T07:52:24Z</time>
      </trkpt>
      <trkpt lat="49.62927" lon="4.96358">
        <ele>191.92</ele>
        <time>2019-06-17T07:52:38Z</time>
      </trkpt>
      <trkpt lat="49.62905" lon="4.96343">
        <ele>192.4</ele>
        <time>2019-06-17T07:52:57Z</time>
      </trkpt>
      <trkpt lat="49.62884" lon="4.96327">
        <ele>192.88</ele>
        <time>2019-06-17T07:53:16Z</time>
      </trkpt>
      <trkpt lat="49.62866" lon="4.96316">
        <ele>193.36</ele>
        <time>2019-06-17T07:53:36Z</time>
      </trkpt>
      <trkpt lat="49.62849" lon="4.96307">
        <ele>191.44</ele>
        <time>2019-06-17T07:53:53Z</time>
      </trkpt>
      <trkpt lat="49.62827" lon="4.96294">
        <ele>192.88</ele>
        <time>2019-06-17T07:54:13Z</time>
      </trkpt>
      <trkpt lat="49.6281" lon="4.96292">
        <ele>190.48</ele>
        <time>2019-06-17T07:54:28Z</time>
      </trkpt>
      <trkpt lat="49.62796" lon="4.9628">
        <ele>185.67</ele>
        <time>2019-06-17T07:54:44Z</time>
      </trkpt>
      <trkpt lat="49.62777" lon="4.96266">
        <ele>182.31</ele>
        <time>2019-06-17T07:55:02Z</time>
      </trkpt>
      <trkpt lat="49.6276" lon="4.96252">
        <ele>183.75</ele>
        <time>2019-06-17T07:55:21Z</time>
      </trkpt>
      <trkpt lat="49.62737" lon="4.96238">
        <ele>189.52</ele>
        <time>2019-06-17T07:55:41Z</time>
      </trkpt>
      <trkpt lat="49.62714" lon="4.96224">
        <ele>189.52</ele>
        <time>2019-06-17T07:56:03Z</time>
      </trkpt>
      <trkpt lat="49.62692" lon="4.96206">
        <ele>187.11</ele>
        <time>2019-06-17T07:56:23Z</time>
      </trkpt>
      <trkpt lat="49.62681" lon="4.96186">
        <ele>187.59</ele>
        <time>2019-06-17T07:56:40Z</time>
      </trkpt>
      <trkpt lat="49.62669" lon="4.96161">
        <ele>190</ele>
        <time>2019-06-17T07:56:59Z</time>
      </trkpt>
      <trkpt lat="49.62661" lon="4.96151">
        <ele>191.44</ele>
        <time>2019-06-17T07:57:10Z</time>
      </trkpt>
      <trkpt lat="49.6265" lon="4.96135">
        <ele>191.44</ele>
        <time>2019-06-17T07:57:24Z</time>
      </trkpt>
      <trkpt lat="49.62641" lon="4.96122">
        <ele>192.88</ele>
        <time>2019-06-17T07:57:38Z</time>
      </trkpt>
      <trkpt lat="49.6263" lon="4.9611">
        <ele>196.25</ele>
        <time>2019-06-17T07:57:54Z</time>
      </trkpt>
      <trkpt lat="49.62619" lon="4.96099">
        <ele>196.25</ele>
        <time>2019-06-17T07:58:06Z</time>
      </trkpt>
      <trkpt lat="49.62604" lon="4.9609">
        <ele>196.73</ele>
        <time>2019-06-17T07:58:20Z</time>
      </trkpt>
      <trkpt lat="49.62586" lon="4.96089">
        <ele>201.05</ele>
        <time>2019-06-17T07:58:35Z</time>
      </trkpt>
      <trkpt lat="49.62569" lon="4.96094">
        <ele>198.17</ele>
        <time>2019-06-17T07:58:52Z</time>
      </trkpt>
      <trkpt lat="49.62552" lon="4.96098">
        <ele>197.21</ele>
        <time>2019-06-17T07:59:09Z</time>
      </trkpt>
      <trkpt lat="49.6255" lon="4.96098">
        <ele>197.21</ele>
        <time>2019-06-17T07:59:11Z</time>
      </trkpt>
      <trkpt lat="49.62536" lon="4.96102">
        <ele>195.77</ele>
        <time>2019-06-17T07:59:26Z</time>
      </trkpt>
      <trkpt lat="49.6252" lon="4.96104">
        <ele>194.32</ele>
        <time>2019-06-17T07:59:40Z</time>
      </trkpt>
      <trkpt lat="49.625" lon="4.96101">
        <ele>192.4</ele>
        <time>2019-06-17T07:59:58Z</time>
      </trkpt>
      <trkpt lat="49.62483" lon="4.96096">
        <ele>190.96</ele>
        <time>2019-06-17T08:00:13Z</time>
      </trkpt>
      <trkpt lat="49.62463" lon="4.96089">
        <ele>188.08</ele>
        <time>2019-06-17T08:00:32Z</time>
      </trkpt>
      <trkpt lat="49.62444" lon="4.96082">
        <ele>184.71</ele>
        <time>2019-06-17T08:00:49Z</time>
      </trkpt>
      <trkpt lat="49.62426" lon="4.96072">
        <ele>185.19</ele>
        <time>2019-06-17T08:01:07Z</time>
      </trkpt>
      <trkpt lat="49.62407" lon="4.96061">
        <ele>185.19</ele>
        <time>2019-06-17T08:01:24Z</time>
      </trkpt>
      <trkpt lat="49.62394" lon="4.96049">
        <ele>181.35</ele>
        <time>2019-06-17T08:01:38Z</time>
      </trkpt>
      <trkpt lat="49.62387" lon="4.96027">
        <ele>180.87</ele>
        <time>2019-06-17T08:01:54Z</time>
      </trkpt>
      <trkpt lat="49.62379" lon="4.95998">
        <ele>180.87</ele>
        <time>2019-06-17T08:02:12Z</time>
      </trkpt>
      <trkpt lat="49.62373" lon="4.95975">
        <ele>183.27</ele>
        <time>2019-06-17T08:02:28Z</time>
      </trkpt>
      <trkpt lat="49.62365" lon="4.95939">
        <ele>181.35</ele>
        <time>2019-06-17T08:02:49Z</time>
      </trkpt>
      <trkpt lat="49.62364" lon="4.95924">
        <ele>178.46</ele>
        <time>2019-06-17T08:03:01Z</time>
      </trkpt>
      <trkpt lat="49.62356" lon="4.95891">
        <ele>174.62</ele>
        <time>2019-06-17T08:03:21Z</time>
      </trkpt>
      <trkpt lat="49.62343" lon="4.95873">
        <ele>174.62</ele>
        <time>2019-06-17T08:03:36Z</time>
      </trkpt>
      <trkpt lat="49.62339" lon="4.95874">
        <ele>174.14</ele>
        <time>2019-06-17T08:03:39Z</time>
      </trkpt>
      <trkpt lat="49.62318" lon="4.95882">
        <ele>173.66</ele>
        <time>2019-06-17T08:03:58Z</time>
      </trkpt>
      <trkpt lat="49.62294" lon="4.95883">
        <ele>174.14</ele>
        <time>2019-06-17T08:04:17Z</time>
      </trkpt>
      <trkpt lat="49.62285" lon="4.95885">
        <ele>171.73</ele>
        <time>2019-06-17T08:04:29Z</time>
      </trkpt>
      <trkpt lat="49.62283" lon="4.95861">
        <ele>178.46</ele>
        <time>2019-06-17T08:04:45Z</time>
      </trkpt>
      <trkpt lat="49.62282" lon="4.95852">
        <ele>180.38</ele>
        <time>2019-06-17T08:05:00Z</time>
      </trkpt>
      <trkpt lat="49.62282" lon="4.95853">
        <ele>180.87</ele>
        <time>2019-06-17T08:05:20Z</time>
      </trkpt>
      <trkpt lat="49.62278" lon="4.95846">
        <ele>181.35</ele>
        <time>2019-06-17T08:05:36Z</time>
      </trkpt>
      <trkpt lat="49.62276" lon="4.95841">
        <ele>181.35</ele>
        <time>2019-06-17T08:05:39Z</time>
      </trkpt>
      <trkpt lat="49.62272" lon="4.95811">
        <ele>181.35</ele>
        <time>2019-06-17T08:05:57Z</time>
      </trkpt>
      <trkpt lat="49.62272" lon="4.95791">
        <ele>183.27</ele>
        <time>2019-06-17T08:06:09Z</time>
      </trkpt>
      <trkpt lat="49.62271" lon="4.95758">
        <ele>182.31</ele>
        <time>2019-06-17T08:06:28Z</time>
      </trkpt>
      <trkpt lat="49.62271" lon="4.95756">
        <ele>182.31</ele>
        <time>2019-06-17T08:06:29Z</time>
      </trkpt>
      <trkpt lat="49.62271" lon="4.95743">
        <ele>182.79</ele>
        <time>2019-06-17T08:06:37Z</time>
      </trkpt>
      <trkpt lat="49.62272" lon="4.95734">
        <ele>182.31</ele>
        <time>2019-06-17T08:06:42Z</time>
      </trkpt>
      <trkpt lat="49.62271" lon="4.95711">
        <ele>181.83</ele>
        <time>2019-06-17T08:06:56Z</time>
      </trkpt>
      <trkpt lat="49.62266" lon="4.95686">
        <ele>182.79</ele>
        <time>2019-06-17T08:07:12Z</time>
      </trkpt>
      <trkpt lat="49.62262" lon="4.95662">
        <ele>184.23</ele>
        <time>2019-06-17T08:07:28Z</time>
      </trkpt>
      <trkpt lat="49.62258" lon="4.95638">
        <ele>184.23</ele>
        <time>2019-06-17T08:07:43Z</time>
      </trkpt>
      <trkpt lat="49.62254" lon="4.95616">
        <ele>181.35</ele>
        <time>2019-06-17T08:07:57Z</time>
      </trkpt>
      <trkpt lat="49.62253" lon="4.95592">
        <ele>181.35</ele>
        <time>2019-06-17T08:08:13Z</time>
      </trkpt>
      <trkpt lat="49.62245" lon="4.9557">
        <ele>180.38</ele>
        <time>2019-06-17T08:08:30Z</time>
      </trkpt>
      <trkpt lat="49.62239" lon="4.95545">
        <ele>181.35</ele>
        <time>2019-06-17T08:08:47Z</time>
      </trkpt>
      <trkpt lat="49.62237" lon="4.95519">
        <ele>186.15</ele>
        <time>2019-06-17T08:09:03Z</time>
      </trkpt>
      <trkpt lat="49.62233" lon="4.95536">
        <ele>188.56</ele>
        <time>2019-06-17T08:09:21Z</time>
      </trkpt>
      <trkpt lat="49.62222" lon="4.95568">
        <ele>181.35</ele>
        <time>2019-06-17T08:09:41Z</time>
      </trkpt>
      <trkpt lat="49.62222" lon="4.9557">
        <ele>180.87</ele>
        <time>2019-06-17T08:09:42Z</time>
      </trkpt>
      <trkpt lat="49.62217" lon="4.95598">
        <ele>179.42</ele>
        <time>2019-06-17T08:10:01Z</time>
      </trkpt>
      <trkpt lat="49.62207" lon="4.95627">
        <ele>182.31</ele>
        <time>2019-06-17T08:10:21Z</time>
      </trkpt>
      <trkpt lat="49.62203" lon="4.95645">
        <ele>182.79</ele>
        <time>2019-06-17T08:10:40Z</time>
      </trkpt>
      <trkpt lat="49.62204" lon="4.95654">
        <ele>183.27</ele>
        <time>2019-06-17T08:10:57Z</time>
      </trkpt>
      <trkpt lat="49.62205" lon="4.95665">
        <ele>187.11</ele>
        <time>2019-06-17T08:11:16Z</time>
      </trkpt>
      <trkpt lat="49.62201" lon="4.95685">
        <ele>189.04</ele>
        <time>2019-06-17T08:11:32Z</time>
      </trkpt>
      <trkpt lat="49.622" lon="4.95714">
        <ele>190</ele>
        <time>2019-06-17T08:11:49Z</time>
      </trkpt>
      <trkpt lat="49.62197" lon="4.95748">
        <ele>189.04</ele>
        <time>2019-06-17T08:12:03Z</time>
      </trkpt>
      <trkpt lat="49.62189" lon="4.95785">
        <ele>188.08</ele>
        <time>2019-06-17T08:12:20Z</time>
      </trkpt>
      <trkpt lat="49.62182" lon="4.95809">
        <ele>184.23</ele>
        <time>2019-06-17T08:12:36Z</time>
      </trkpt>
      <trkpt lat="49.62172" lon="4.95826">
        <ele>180.38</ele>
        <time>2019-06-17T08:12:50Z</time>
      </trkpt>
      <trkpt lat="49.62159" lon="4.95843">
        <ele>180.87</ele>
        <time>2019-06-17T08:13:09Z</time>
      </trkpt>
      <trkpt lat="49.62149" lon="4.95858">
        <ele>181.83</ele>
        <time>2019-06-17T08:13:25Z</time>
      </trkpt>
      <trkpt lat="49.62135" lon="4.95867">
        <ele>184.23</ele>
        <time>2019-06-17T08:13:43Z</time>
      </trkpt>
      <trkpt lat="49.62117" lon="4.95881">
        <ele>187.11</ele>
        <time>2019-06-17T08:14:02Z</time>
      </trkpt>
      <trkpt lat="49.62104" lon="4.95888">
        <ele>189.04</ele>
        <time>2019-06-17T08:14:17Z</time>
      </trkpt>
      <trkpt lat="49.62085" lon="4.95899">
        <ele>188.56</ele>
        <time>2019-06-17T08:14:39Z</time>
      </trkpt>
      <trkpt lat="49.62068" lon="4.95915">
        <ele>189.52</ele>
        <time>2019-06-17T08:14:55Z</time>
      </trkpt>
      <trkpt lat="49.62062" lon="4.95923">
        <ele>187.59</ele>
        <time>2019-06-17T08:15:03Z</time>
      </trkpt>
      <trkpt lat="49.62057" lon="4.95927">
        <ele>186.63</ele>
        <time>2019-06-17T08:15:09Z</time>
      </trkpt>
      <trkpt lat="49.6204" lon="4.95936">
        <ele>189.04</ele>
        <time>2019-06-17T08:15:24Z</time>
      </trkpt>
      <trkpt lat="49.62024" lon="4.95946">
        <ele>189.52</ele>
        <time>2019-06-17T08:15:39Z</time>
      </trkpt>
      <trkpt lat="49.62008" lon="4.95948">
        <ele>189.52</ele>
        <time>2019-06-17T08:15:56Z</time>
      </trkpt>
      <trkpt lat="49.62006" lon="4.95946">
        <ele>189.04</ele>
        <time>2019-06-17T08:16:00Z</time>
      </trkpt>
      <trkpt lat="49.61992" lon="4.95935">
        <ele>185.67</ele>
        <time>2019-06-17T08:16:16Z</time>
      </trkpt>
      <trkpt lat="49.6198" lon="4.9593">
        <ele>182.31</ele>
        <time>2019-06-17T08:16:31Z</time>
      </trkpt>
      <trkpt lat="49.61968" lon="4.95921">
        <ele>178.46</ele>
        <time>2019-06-17T08:16:47Z</time>
      </trkpt>
      <trkpt lat="49.61955" lon="4.95914">
        <ele>174.62</ele>
        <time>2019-06-17T08:17:04Z</time>
      </trkpt>
      <trkpt lat="49.61934" lon="4.95912">
        <ele>172.21</ele>
        <time>2019-06-17T08:17:21Z</time>
      </trkpt>
      <trkpt lat="49.61924" lon="4.95913">
        <ele>169.81</ele>
        <time>2019-06-17T08:17:34Z</time>
      </trkpt>
      <trkpt lat="49.61904" lon="4.95917">
        <ele>169.33</ele>
        <time>2019-06-17T08:17:50Z</time>
      </trkpt>
      <trkpt lat="49.61888" lon="4.95911">
        <ele>171.73</ele>
        <time>2019-06-17T08:18:06Z</time>
      </trkpt>
      <trkpt lat="49.6188" lon="4.95909">
        <ele>172.69</ele>
        <time>2019-06-17T08:18:25Z</time>
      </trkpt>
      <trkpt lat="49.61877" lon="4.95909">
        <ele>172.69</ele>
        <time>2019-06-17T08:18:43Z</time>
      </trkpt>
      <trkpt lat="49.61874" lon="4.95912">
        <ele>174.62</ele>
        <time>2019-06-17T08:19:17Z</time>
      </trkpt>
      <trkpt lat="49.61873" lon="4.95912">
        <ele>175.1</ele>
        <time>2019-06-17T08:19:39Z</time>
      </trkpt>
      <trkpt lat="49.6187" lon="4.95911">
        <ele>174.62</ele>
        <time>2019-06-17T08:20:05Z</time>
      </trkpt>
      <trkpt lat="49.6187" lon="4.95911">
        <ele>174.14</ele>
        <time>2019-06-17T08:20:28Z</time>
      </trkpt>
      <trkpt lat="49.61867" lon="4.95912">
        <ele>176.06</ele>
        <time>2019-06-17T08:20:57Z</time>
      </trkpt>
      <trkpt lat="49.61867" lon="4.95911">
        <ele>177.98</ele>
        <time>2019-06-17T08:21:28Z</time>
      </trkpt>
      <trkpt lat="49.61867" lon="4.95911">
        <ele>179.42</ele>
        <time>2019-06-17T08:21:59Z</time>
      </trkpt>
      <trkpt lat="49.61865" lon="4.9591">
        <ele>178.94</ele>
        <time>2019-06-17T08:22:23Z</time>
      </trkpt>
      <trkpt lat="49.61858" lon="4.95913">
        <ele>181.35</ele>
        <time>2019-06-17T08:22:39Z</time>
      </trkpt>
      <trkpt lat="49.61845" lon="4.95918">
        <ele>184.23</ele>
        <time>2019-06-17T08:22:58Z</time>
      </trkpt>
      <trkpt lat="49.61835" lon="4.95926">
        <ele>189.04</ele>
        <time>2019-06-17T08:23:14Z</time>
      </trkpt>
      <trkpt lat="49.61824" lon="4.95926">
        <ele>191.92</ele>
        <time>2019-06-17T08:23:29Z</time>
      </trkpt>
      <trkpt lat="49.61807" lon="4.95917">
        <ele>191.92</ele>
        <time>2019-06-17T08:23:48Z</time>
      </trkpt>
      <trkpt lat="49.61805" lon="4.95922">
        <ele>193.84</ele>
        <time>2019-06-17T08:24:05Z</time>
      </trkpt>
      <trkpt lat="49.61805" lon="4.95922">
        <ele>195.77</ele>
        <time>2019-06-17T08:24:23Z</time>
      </trkpt>
      <trkpt lat="49.61804" lon="4.95921">
        <ele>195.77</ele>
        <time>2019-06-17T08:24:48Z</time>
      </trkpt>
      <trkpt lat="49.61804" lon="4.95922">
        <ele>197.69</ele>
        <time>2019-06-17T08:25:11Z</time>
      </trkpt>
      <trkpt lat="49.61804" lon="4.95923">
        <ele>198.17</ele>
        <time>2019-06-17T08:25:30Z</time>
      </trkpt>
      <trkpt lat="49.61803" lon="4.95922">
        <ele>198.17</ele>
        <time>2019-06-17T08:25:43Z</time>
      </trkpt>
      <trkpt lat="49.61803" lon="4.95922">
        <ele>199.13</ele>
        <time>2019-06-17T08:26:01Z</time>
      </trkpt>
      <trkpt lat="49.61803" lon="4.95922">
        <ele>200.09</ele>
        <time>2019-06-17T08:26:19Z</time>
      </trkpt>
      <trkpt lat="49.61803" lon="4.95922">
        <ele>200.09</ele>
        <time>2019-06-17T08:26:32Z</time>
      </trkpt>
      <trkpt lat="49.61804" lon="4.95924">
        <ele>200.57</ele>
        <time>2019-06-17T08:26:42Z</time>
      </trkpt>
      <trkpt lat="49.61804" lon="4.95922">
        <ele>199.61</ele>
        <time>2019-06-17T08:26:54Z</time>
      </trkpt>
      <trkpt lat="49.61805" lon="4.9592">
        <ele>198.65</ele>
        <time>2019-06-17T08:27:17Z</time>
      </trkpt>
      <trkpt lat="49.61805" lon="4.95921">
        <ele>198.17</ele>
        <time>2019-06-17T08:27:33Z</time>
      </trkpt>
      <trkpt lat="49.61804" lon="4.95921">
        <ele>198.17</ele>
        <time>2019-06-17T08:27:46Z</time>
      </trkpt>
      <trkpt lat="49.61804" lon="4.95921">
        <ele>197.69</ele>
        <time>2019-06-17T08:27:57Z</time>
      </trkpt>
      <trkpt lat="49.61805" lon="4.95921">
        <ele>197.69</ele>
        <time>2019-06-17T08:28:10Z</time>
      </trkpt>
      <trkpt lat="49.61806" lon="4.9592">
        <ele>197.69</ele>
        <time>2019-06-17T08:28:23Z</time>
      </trkpt>
      <trkpt lat="49.61806" lon="4.9592">
        <ele>197.21</ele>
        <time>2019-06-17T08:28:35Z</time>
      </trkpt>
      <trkpt lat="49.61806" lon="4.9592">
        <ele>196.73</ele>
        <time>2019-06-17T08:28:51Z</time>
      </trkpt>
      <trkpt lat="49.61807" lon="4.9592">
        <ele>196.25</ele>
        <time>2019-06-17T08:29:12Z</time>
      </trkpt>
      <trkpt lat="49.61807" lon="4.95919">
        <ele>195.77</ele>
        <time>2019-06-17T08:29:40Z</time>
      </trkpt>
      <trkpt lat="49.61807" lon="4.9592">
        <ele>195.28</ele>
        <time>2019-06-17T08:30:11Z</time>
      </trkpt>
      <trkpt lat="49.61807" lon="4.95919">
        <ele>193.36</ele>
        <time>2019-06-17T08:30:44Z</time>
      </trkpt>
      <trkpt lat="49.61802" lon="4.95916">
        <ele>193.36</ele>
        <time>2019-06-17T08:30:58Z</time>
      </trkpt>
      <trkpt lat="49.61787" lon="4.95904">
        <ele>197.69</ele>
        <time>2019-06-17T08:31:13Z</time>
      </trkpt>
      <trkpt lat="49.61774" lon="4.95897">
        <ele>202.49</ele>
        <time>2019-06-17T08:31:27Z</time>
      </trkpt>
      <trkpt lat="49.61755" lon="4.95887">
        <ele>208.74</ele>
        <time>2019-06-17T08:31:44Z</time>
      </trkpt>
      <trkpt lat="49.61743" lon="4.95879">
        <ele>213.55</ele>
        <time>2019-06-17T08:32:00Z</time>
      </trkpt>
      <trkpt lat="49.6173" lon="4.95869">
        <ele>218.36</ele>
        <time>2019-06-17T08:32:15Z</time>
      </trkpt>
      <trkpt lat="49.61716" lon="4.95852">
        <ele>219.8</ele>
        <time>2019-06-17T08:32:31Z</time>
      </trkpt>
      <trkpt lat="49.61704" lon="4.95839">
        <ele>222.68</ele>
        <time>2019-06-17T08:32:46Z</time>
      </trkpt>
      <trkpt lat="49.61693" lon="4.95822">
        <ele>226.53</ele>
        <time>2019-06-17T08:33:03Z</time>
      </trkpt>
      <trkpt lat="49.61685" lon="4.95804">
        <ele>226.05</ele>
        <time>2019-06-17T08:33:17Z</time>
      </trkpt>
      <trkpt lat="49.61676" lon="4.95788">
        <ele>226.53</ele>
        <time>2019-06-17T08:33:30Z</time>
      </trkpt>
      <trkpt lat="49.61666" lon="4.95772">
        <ele>226.53</ele>
        <time>2019-06-17T08:33:44Z</time>
      </trkpt>
      <trkpt lat="49.61658" lon="4.95757">
        <ele>226.53</ele>
        <time>2019-06-17T08:33:56Z</time>
      </trkpt>
      <trkpt lat="49.61648" lon="4.95736">
        <ele>226.53</ele>
        <time>2019-06-17T08:34:11Z</time>
      </trkpt>
      <trkpt lat="49.61642" lon="4.95715">
        <ele>227.97</ele>
        <time>2019-06-17T08:34:25Z</time>
      </trkpt>
      <trkpt lat="49.61637" lon="4.95691">
        <ele>227.97</ele>
        <time>2019-06-17T08:34:40Z</time>
      </trkpt>
      <trkpt lat="49.61631" lon="4.95665">
        <ele>227.97</ele>
        <time>2019-06-17T08:34:56Z</time>
      </trkpt>
      <trkpt lat="49.61627" lon="4.95638">
        <ele>227.97</ele>
        <time>2019-06-17T08:35:13Z</time>
      </trkpt>
      <trkpt lat="49.61627" lon="4.95609">
        <ele>229.89</ele>
        <time>2019-06-17T08:35:30Z</time>
      </trkpt>
      <trkpt lat="49.61627" lon="4.95606">
        <ele>230.37</ele>
        <time>2019-06-17T08:35:32Z</time>
      </trkpt>
      <trkpt lat="49.61629" lon="4.95599">
        <ele>230.85</ele>
        <time>2019-06-17T08:35:36Z</time>
      </trkpt>
      <trkpt lat="49.61629" lon="4.95574">
        <ele>233.74</ele>
        <time>2019-06-17T08:35:52Z</time>
      </trkpt>
      <trkpt lat="49.61631" lon="4.95556">
        <ele>234.7</ele>
        <time>2019-06-17T08:36:03Z</time>
      </trkpt>
      <trkpt lat="49.61633" lon="4.95532">
        <ele>235.66</ele>
        <time>2019-06-17T08:36:19Z</time>
      </trkpt>
      <trkpt lat="49.61633" lon="4.95527">
        <ele>235.66</ele>
        <time>2019-06-17T08:36:22Z</time>
      </trkpt>
      <trkpt lat="49.61633" lon="4.95512">
        <ele>237.58</ele>
        <time>2019-06-17T08:36:35Z</time>
      </trkpt>
      <trkpt lat="49.61633" lon="4.95498">
        <ele>238.06</ele>
        <time>2019-06-17T08:36:55Z</time>
      </trkpt>
      <trkpt lat="49.61633" lon="4.95477">
        <ele>239.02</ele>
        <time>2019-06-17T08:37:08Z</time>
      </trkpt>
      <trkpt lat="49.61633" lon="4.95465">
        <ele>239.99</ele>
        <time>2019-06-17T08:37:15Z</time>
      </trkpt>
      <trkpt lat="49.6163" lon="4.95441">
        <ele>240.95</ele>
        <time>2019-06-17T08:37:30Z</time>
      </trkpt>
      <trkpt lat="49.61631" lon="4.95431">
        <ele>241.91</ele>
        <time>2019-06-17T08:37:36Z</time>
      </trkpt>
      <trkpt lat="49.61632" lon="4.95403">
        <ele>243.83</ele>
        <time>2019-06-17T08:37:52Z</time>
      </trkpt>
      <trkpt lat="49.61631" lon="4.95375">
        <ele>245.75</ele>
        <time>2019-06-17T08:38:08Z</time>
      </trkpt>
      <trkpt lat="49.61627" lon="4.95347">
        <ele>246.23</ele>
        <time>2019-06-17T08:38:25Z</time>
      </trkpt>
      <trkpt lat="49.61627" lon="4.95342">
        <ele>246.23</ele>
        <time>2019-06-17T08:38:28Z</time>
      </trkpt>
      <trkpt lat="49.61621" lon="4.95318">
        <ele>246.72</ele>
        <time>2019-06-17T08:38:44Z</time>
      </trkpt>
      <trkpt lat="49.61618" lon="4.95304">
        <ele>246.72</ele>
        <time>2019-06-17T08:38:53Z</time>
      </trkpt>
      <trkpt lat="49.61617" lon="4.95299">
        <ele>247.2</ele>
        <time>2019-06-17T08:38:56Z</time>
      </trkpt>
      <trkpt lat="49.61612" lon="4.95272">
        <ele>248.16</ele>
        <time>2019-06-17T08:39:12Z</time>
      </trkpt>
      <trkpt lat="49.61605" lon="4.95245">
        <ele>250.56</ele>
        <time>2019-06-17T08:39:29Z</time>
      </trkpt>
      <trkpt lat="49.61604" lon="4.95239">
        <ele>251.04</ele>
        <time>2019-06-17T08:39:33Z</time>
      </trkpt>
      <trkpt lat="49.61597" lon="4.95213">
        <ele>251.52</ele>
        <time>2019-06-17T08:39:49Z</time>
      </trkpt>
      <trkpt lat="49.61595" lon="4.95204">
        <ele>251.52</ele>
        <time>2019-06-17T08:39:54Z</time>
      </trkpt>
      <trkpt lat="49.61588" lon="4.95174">
        <ele>253.44</ele>
        <time>2019-06-17T08:40:12Z</time>
      </trkpt>
      <trkpt lat="49.61583" lon="4.95147">
        <ele>253.93</ele>
        <time>2019-06-17T08:40:28Z</time>
      </trkpt>
      <trkpt lat="49.61577" lon="4.95122">
        <ele>254.41</ele>
        <time>2019-06-17T08:40:44Z</time>
      </trkpt>
      <trkpt lat="49.61568" lon="4.95101">
        <ele>252.96</ele>
        <time>2019-06-17T08:41:00Z</time>
      </trkpt>
      <trkpt lat="49.61565" lon="4.95092">
        <ele>252.96</ele>
        <time>2019-06-17T08:41:05Z</time>
      </trkpt>
      <trkpt lat="49.61557" lon="4.95065">
        <ele>252</ele>
        <time>2019-06-17T08:41:22Z</time>
      </trkpt>
      <trkpt lat="49.61556" lon="4.95064">
        <ele>252</ele>
        <time>2019-06-17T08:41:23Z</time>
      </trkpt>
      <trkpt lat="49.61553" lon="4.95053">
        <ele>253.93</ele>
        <time>2019-06-17T08:41:30Z</time>
      </trkpt>
      <trkpt lat="49.61552" lon="4.95045">
        <ele>254.41</ele>
        <time>2019-06-17T08:41:35Z</time>
      </trkpt>
      <trkpt lat="49.61541" lon="4.95023">
        <ele>254.89</ele>
        <time>2019-06-17T08:41:51Z</time>
      </trkpt>
      <trkpt lat="49.6154" lon="4.95019">
        <ele>255.85</ele>
        <time>2019-06-17T08:41:54Z</time>
      </trkpt>
      <trkpt lat="49.61533" lon="4.95002">
        <ele>258.25</ele>
        <time>2019-06-17T08:42:06Z</time>
      </trkpt>
      <trkpt lat="49.61529" lon="4.94992">
        <ele>258.73</ele>
        <time>2019-06-17T08:42:12Z</time>
      </trkpt>
      <trkpt lat="49.61525" lon="4.94985">
        <ele>259.21</ele>
        <time>2019-06-17T08:42:17Z</time>
      </trkpt>
      <trkpt lat="49.61521" lon="4.94978">
        <ele>259.21</ele>
        <time>2019-06-17T08:42:22Z</time>
      </trkpt>
      <trkpt lat="49.6151" lon="4.94957">
        <ele>259.69</ele>
        <time>2019-06-17T08:42:37Z</time>
      </trkpt>
      <trkpt lat="49.61497" lon="4.94939">
        <ele>260.17</ele>
        <time>2019-06-17T08:42:52Z</time>
      </trkpt>
      <trkpt lat="49.61495" lon="4.94936">
        <ele>260.17</ele>
        <time>2019-06-17T08:42:55Z</time>
      </trkpt>
      <trkpt lat="49.61491" lon="4.9493">
        <ele>260.17</ele>
        <time>2019-06-17T08:43:00Z</time>
      </trkpt>
      <trkpt lat="49.61485" lon="4.94922">
        <ele>260.17</ele>
        <time>2019-06-17T08:43:07Z</time>
      </trkpt>
      <trkpt lat="49.61468" lon="4.94902">
        <ele>259.21</ele>
        <time>2019-06-17T08:43:25Z</time>
      </trkpt>
      <trkpt lat="49.61456" lon="4.94887">
        <ele>257.77</ele>
        <time>2019-06-17T08:43:38Z</time>
      </trkpt>
      <trkpt lat="49.61448" lon="4.94877">
        <ele>257.29</ele>
        <time>2019-06-17T08:43:48Z</time>
      </trkpt>
      <trkpt lat="49.61434" lon="4.94857">
        <ele>256.81</ele>
        <time>2019-06-17T08:44:05Z</time>
      </trkpt>
      <trkpt lat="49.61432" lon="4.94855">
        <ele>256.81</ele>
        <time>2019-06-17T08:44:07Z</time>
      </trkpt>
      <trkpt lat="49.61418" lon="4.94834">
        <ele>258.25</ele>
        <time>2019-06-17T08:44:24Z</time>
      </trkpt>
      <trkpt lat="49.6141" lon="4.94826">
        <ele>258.73</ele>
        <time>2019-06-17T08:44:33Z</time>
      </trkpt>
      <trkpt lat="49.61404" lon="4.94813">
        <ele>259.21</ele>
        <time>2019-06-17T08:44:42Z</time>
      </trkpt>
      <trkpt lat="49.6139" lon="4.94798">
        <ele>259.21</ele>
        <time>2019-06-17T08:44:58Z</time>
      </trkpt>
      <trkpt lat="49.61389" lon="4.94797">
        <ele>259.21</ele>
        <time>2019-06-17T08:44:59Z</time>
      </trkpt>
      <trkpt lat="49.61379" lon="4.94777">
        <ele>263.06</ele>
        <time>2019-06-17T08:45:14Z</time>
      </trkpt>
      <trkpt lat="49.61372" lon="4.94768">
        <ele>264.98</ele>
        <time>2019-06-17T08:45:22Z</time>
      </trkpt>
      <trkpt lat="49.6136" lon="4.94748">
        <ele>268.35</ele>
        <time>2019-06-17T08:45:38Z</time>
      </trkpt>
      <trkpt lat="49.61347" lon="4.94729">
        <ele>268.83</ele>
        <time>2019-06-17T08:45:54Z</time>
      </trkpt>
      <trkpt lat="49.61335" lon="4.94712">
        <ele>270.75</ele>
        <time>2019-06-17T08:46:08Z</time>
      </trkpt>
      <trkpt lat="49.61324" lon="4.94697">
        <ele>271.71</ele>
        <time>2019-06-17T08:46:22Z</time>
      </trkpt>
      <trkpt lat="49.61319" lon="4.9469">
        <ele>273.63</ele>
        <time>2019-06-17T08:46:36Z</time>
      </trkpt>
      <trkpt lat="49.6131" lon="4.94681">
        <ele>277.48</ele>
        <time>2019-06-17T08:46:53Z</time>
      </trkpt>
      <trkpt lat="49.61299" lon="4.94668">
        <ele>278.92</ele>
        <time>2019-06-17T08:47:11Z</time>
      </trkpt>
      <trkpt lat="49.61279" lon="4.94646">
        <ele>283.25</ele>
        <time>2019-06-17T08:47:26Z</time>
      </trkpt>
      <trkpt lat="49.61266" lon="4.94628">
        <ele>285.17</ele>
        <time>2019-06-17T08:47:40Z</time>
      </trkpt>
      <trkpt lat="49.61244" lon="4.94605">
        <ele>288.05</ele>
        <time>2019-06-17T08:47:59Z</time>
      </trkpt>
      <trkpt lat="49.61242" lon="4.94604">
        <ele>288.05</ele>
        <time>2019-06-17T08:48:00Z</time>
      </trkpt>
      <trkpt lat="49.61222" lon="4.94583">
        <ele>289.97</ele>
        <time>2019-06-17T08:48:18Z</time>
      </trkpt>
      <trkpt lat="49.61209" lon="4.94565">
        <ele>291.42</ele>
        <time>2019-06-17T08:48:33Z</time>
      </trkpt>
      <trkpt lat="49.61196" lon="4.94542">
        <ele>293.34</ele>
        <time>2019-06-17T08:48:49Z</time>
      </trkpt>
      <trkpt lat="49.61183" lon="4.94521">
        <ele>298.15</ele>
        <time>2019-06-17T08:49:04Z</time>
      </trkpt>
      <trkpt lat="49.61168" lon="4.94503">
        <ele>301.51</ele>
        <time>2019-06-17T08:49:22Z</time>
      </trkpt>
      <trkpt lat="49.61153" lon="4.94482">
        <ele>301.51</ele>
        <time>2019-06-17T08:49:41Z</time>
      </trkpt>
      <trkpt lat="49.61138" lon="4.94463">
        <ele>304.88</ele>
        <time>2019-06-17T08:49:58Z</time>
      </trkpt>
      <trkpt lat="49.61122" lon="4.94444">
        <ele>306.32</ele>
        <time>2019-06-17T08:50:16Z</time>
      </trkpt>
      <trkpt lat="49.61102" lon="4.94422">
        <ele>304.39</ele>
        <time>2019-06-17T08:50:34Z</time>
      </trkpt>
      <trkpt lat="49.61087" lon="4.94405">
        <ele>304.88</ele>
        <time>2019-06-17T08:50:50Z</time>
      </trkpt>
      <trkpt lat="49.61072" lon="4.94386">
        <ele>300.55</ele>
        <time>2019-06-17T08:51:07Z</time>
      </trkpt>
      <trkpt lat="49.61055" lon="4.94366">
        <ele>296.7</ele>
        <time>2019-06-17T08:51:25Z</time>
      </trkpt>
      <trkpt lat="49.61036" lon="4.94344">
        <ele>291.42</ele>
        <time>2019-06-17T08:51:45Z</time>
      </trkpt>
      <trkpt lat="49.61018" lon="4.94323">
        <ele>289.01</ele>
        <time>2019-06-17T08:52:05Z</time>
      </trkpt>
      <trkpt lat="49.61002" lon="4.94303">
        <ele>288.05</ele>
        <time>2019-06-17T08:52:24Z</time>
      </trkpt>
      <trkpt lat="49.6099" lon="4.94279">
        <ele>289.01</ele>
        <time>2019-06-17T08:52:42Z</time>
      </trkpt>
      <trkpt lat="49.60983" lon="4.94263">
        <ele>288.53</ele>
        <time>2019-06-17T08:52:54Z</time>
      </trkpt>
      <trkpt lat="49.6097" lon="4.94232">
        <ele>287.09</ele>
        <time>2019-06-17T08:53:14Z</time>
      </trkpt>
      <trkpt lat="49.60958" lon="4.94201">
        <ele>287.57</ele>
        <time>2019-06-17T08:53:35Z</time>
      </trkpt>
      <trkpt lat="49.60947" lon="4.94175">
        <ele>288.05</ele>
        <time>2019-06-17T08:53:53Z</time>
      </trkpt>
      <trkpt lat="49.60936" lon="4.94147">
        <ele>286.61</ele>
        <time>2019-06-17T08:54:11Z</time>
      </trkpt>
      <trkpt lat="49.60924" lon="4.94121">
        <ele>287.57</ele>
        <time>2019-06-17T08:54:29Z</time>
      </trkpt>
      <trkpt lat="49.60912" lon="4.94095">
        <ele>289.01</ele>
        <time>2019-06-17T08:54:48Z</time>
      </trkpt>
      <trkpt lat="49.60901" lon="4.94068">
        <ele>289.49</ele>
        <time>2019-06-17T08:55:07Z</time>
      </trkpt>
      <trkpt lat="49.60889" lon="4.94039">
        <ele>290.46</ele>
        <time>2019-06-17T08:55:26Z</time>
      </trkpt>
      <trkpt lat="49.60876" lon="4.94011">
        <ele>290.46</ele>
        <time>2019-06-17T08:55:46Z</time>
      </trkpt>
      <trkpt lat="49.60864" lon="4.93984">
        <ele>291.42</ele>
        <time>2019-06-17T08:56:04Z</time>
      </trkpt>
      <trkpt lat="49.60853" lon="4.93956">
        <ele>292.86</ele>
        <time>2019-06-17T08:56:23Z</time>
      </trkpt>
      <trkpt lat="49.6084" lon="4.93929">
        <ele>294.3</ele>
        <time>2019-06-17T08:56:42Z</time>
      </trkpt>
      <trkpt lat="49.60828" lon="4.93905">
        <ele>294.78</ele>
        <time>2019-06-17T08:56:59Z</time>
      </trkpt>
      <trkpt lat="49.60816" lon="4.9388">
        <ele>296.7</ele>
        <time>2019-06-17T08:57:17Z</time>
      </trkpt>
      <trkpt lat="49.60801" lon="4.93853">
        <ele>298.63</ele>
        <time>2019-06-17T08:57:37Z</time>
      </trkpt>
      <trkpt lat="49.6079" lon="4.93829">
        <ele>298.15</ele>
        <time>2019-06-17T08:57:53Z</time>
      </trkpt>
      <trkpt lat="49.60775" lon="4.93803">
        <ele>298.15</ele>
        <time>2019-06-17T08:58:11Z</time>
      </trkpt>
      <trkpt lat="49.60761" lon="4.93779">
        <ele>298.63</ele>
        <time>2019-06-17T08:58:29Z</time>
      </trkpt>
      <trkpt lat="49.60748" lon="4.93759">
        <ele>298.15</ele>
        <time>2019-06-17T08:58:46Z</time>
      </trkpt>
      <trkpt lat="49.60733" lon="4.93738">
        <ele>296.7</ele>
        <time>2019-06-17T08:59:03Z</time>
      </trkpt>
      <trkpt lat="49.60731" lon="4.93735">
        <ele>296.7</ele>
        <time>2019-06-17T08:59:05Z</time>
      </trkpt>
      <trkpt lat="49.60728" lon="4.93729">
        <ele>296.7</ele>
        <time>2019-06-17T08:59:09Z</time>
      </trkpt>
      <trkpt lat="49.60712" lon="4.93707">
        <ele>296.22</ele>
        <time>2019-06-17T08:59:26Z</time>
      </trkpt>
      <trkpt lat="49.60698" lon="4.93685">
        <ele>296.7</ele>
        <time>2019-06-17T08:59:44Z</time>
      </trkpt>
      <trkpt lat="49.60685" lon="4.93667">
        <ele>298.15</ele>
        <time>2019-06-17T09:00:00Z</time>
      </trkpt>
      <trkpt lat="49.6067" lon="4.93647">
        <ele>298.15</ele>
        <time>2019-06-17T09:00:17Z</time>
      </trkpt>
      <trkpt lat="49.60657" lon="4.93634">
        <ele>298.15</ele>
        <time>2019-06-17T09:00:30Z</time>
      </trkpt>
      <trkpt lat="49.60653" lon="4.93639">
        <ele>298.63</ele>
        <time>2019-06-17T09:00:36Z</time>
      </trkpt>
      <trkpt lat="49.60652" lon="4.93651">
        <ele>299.59</ele>
        <time>2019-06-17T09:00:43Z</time>
      </trkpt>
      <trkpt lat="49.60649" lon="4.9368">
        <ele>301.03</ele>
        <time>2019-06-17T09:01:00Z</time>
      </trkpt>
      <trkpt lat="49.60645" lon="4.93707">
        <ele>302.95</ele>
        <time>2019-06-17T09:01:18Z</time>
      </trkpt>
      <trkpt lat="49.60642" lon="4.93726">
        <ele>310.16</ele>
        <time>2019-06-17T09:01:33Z</time>
      </trkpt>
      <trkpt lat="49.6064" lon="4.93759">
        <ele>316.41</ele>
        <time>2019-06-17T09:01:52Z</time>
      </trkpt>
      <trkpt lat="49.60638" lon="4.9379">
        <ele>315.93</ele>
        <time>2019-06-17T09:02:09Z</time>
      </trkpt>
      <trkpt lat="49.60633" lon="4.93822">
        <ele>316.89</ele>
        <time>2019-06-17T09:02:28Z</time>
      </trkpt>
      <trkpt lat="49.6063" lon="4.93858">
        <ele>315.93</ele>
        <time>2019-06-17T09:02:49Z</time>
      </trkpt>
      <trkpt lat="49.60623" lon="4.93895">
        <ele>314.01</ele>
        <time>2019-06-17T09:03:10Z</time>
      </trkpt>
      <trkpt lat="49.60619" lon="4.93909">
        <ele>313.53</ele>
        <time>2019-06-17T09:03:18Z</time>
      </trkpt>
      <trkpt lat="49.60615" lon="4.93932">
        <ele>313.53</ele>
        <time>2019-06-17T09:03:36Z</time>
      </trkpt>
      <trkpt lat="49.6061" lon="4.93953">
        <ele>313.05</ele>
        <time>2019-06-17T09:03:50Z</time>
      </trkpt>
      <trkpt lat="49.60602" lon="4.93983">
        <ele>310.64</ele>
        <time>2019-06-17T09:04:09Z</time>
      </trkpt>
      <trkpt lat="49.60592" lon="4.9401">
        <ele>309.2</ele>
        <time>2019-06-17T09:04:29Z</time>
      </trkpt>
      <trkpt lat="49.60579" lon="4.94042">
        <ele>306.8</ele>
        <time>2019-06-17T09:04:50Z</time>
      </trkpt>
      <trkpt lat="49.6057" lon="4.94062">
        <ele>304.39</ele>
        <time>2019-06-17T09:05:06Z</time>
      </trkpt>
      <trkpt lat="49.60561" lon="4.94089">
        <ele>303.43</ele>
        <time>2019-06-17T09:05:25Z</time>
      </trkpt>
      <trkpt lat="49.60548" lon="4.94117">
        <ele>302.47</ele>
        <time>2019-06-17T09:05:45Z</time>
      </trkpt>
      <trkpt lat="49.60537" lon="4.94147">
        <ele>300.07</ele>
        <time>2019-06-17T09:06:07Z</time>
      </trkpt>
      <trkpt lat="49.6053" lon="4.94163">
        <ele>299.11</ele>
        <time>2019-06-17T09:06:19Z</time>
      </trkpt>
      <trkpt lat="49.60518" lon="4.94192">
        <ele>295.74</ele>
        <time>2019-06-17T09:06:38Z</time>
      </trkpt>
      <trkpt lat="49.60505" lon="4.94218">
        <ele>296.22</ele>
        <time>2019-06-17T09:06:59Z</time>
      </trkpt>
      <trkpt lat="49.60499" lon="4.94234">
        <ele>297.18</ele>
        <time>2019-06-17T09:07:11Z</time>
      </trkpt>
      <trkpt lat="49.60494" lon="4.94244">
        <ele>298.15</ele>
        <time>2019-06-17T09:07:18Z</time>
      </trkpt>
      <trkpt lat="49.60485" lon="4.94264">
        <ele>298.15</ele>
        <time>2019-06-17T09:07:37Z</time>
      </trkpt>
      <trkpt lat="49.60467" lon="4.94293">
        <ele>299.11</ele>
        <time>2019-06-17T09:07:59Z</time>
      </trkpt>
      <trkpt lat="49.60463" lon="4.94302">
        <ele>299.11</ele>
        <time>2019-06-17T09:08:06Z</time>
      </trkpt>
      <trkpt lat="49.60461" lon="4.94305">
        <ele>299.11</ele>
        <time>2019-06-17T09:08:09Z</time>
      </trkpt>
      <trkpt lat="49.60458" lon="4.9431">
        <ele>299.11</ele>
        <time>2019-06-17T09:08:13Z</time>
      </trkpt>
      <trkpt lat="49.60448" lon="4.94332">
        <ele>298.63</ele>
        <time>2019-06-17T09:08:31Z</time>
      </trkpt>
      <trkpt lat="49.60434" lon="4.94357">
        <ele>297.67</ele>
        <time>2019-06-17T09:08:48Z</time>
      </trkpt>
      <trkpt lat="49.60419" lon="4.94381">
        <ele>295.74</ele>
        <time>2019-06-17T09:09:07Z</time>
      </trkpt>
      <trkpt lat="49.6041" lon="4.94402">
        <ele>297.18</ele>
        <time>2019-06-17T09:09:21Z</time>
      </trkpt>
      <trkpt lat="49.60406" lon="4.94411">
        <ele>295.74</ele>
        <time>2019-06-17T09:09:37Z</time>
      </trkpt>
      <trkpt lat="49.60399" lon="4.94421">
        <ele>293.34</ele>
        <time>2019-06-17T09:09:48Z</time>
      </trkpt>
      <trkpt lat="49.60393" lon="4.94427">
        <ele>292.38</ele>
        <time>2019-06-17T09:09:53Z</time>
      </trkpt>
      <trkpt lat="49.60375" lon="4.94449">
        <ele>290.94</ele>
        <time>2019-06-17T09:10:12Z</time>
      </trkpt>
      <trkpt lat="49.60366" lon="4.94453">
        <ele>290.46</ele>
        <time>2019-06-17T09:10:21Z</time>
      </trkpt>
      <trkpt lat="49.60356" lon="4.94458">
        <ele>289.01</ele>
        <time>2019-06-17T09:10:30Z</time>
      </trkpt>
      <trkpt lat="49.60351" lon="4.94461">
        <ele>288.53</ele>
        <time>2019-06-17T09:10:34Z</time>
      </trkpt>
      <trkpt lat="49.60334" lon="4.94469">
        <ele>286.13</ele>
        <time>2019-06-17T09:10:52Z</time>
      </trkpt>
      <trkpt lat="49.60307" lon="4.94481">
        <ele>283.25</ele>
        <time>2019-06-17T09:11:16Z</time>
      </trkpt>
      <trkpt lat="49.6029" lon="4.94488">
        <ele>280.84</ele>
        <time>2019-06-17T09:11:34Z</time>
      </trkpt>
      <trkpt lat="49.60272" lon="4.94498">
        <ele>277.96</ele>
        <time>2019-06-17T09:11:53Z</time>
      </trkpt>
      <trkpt lat="49.60256" lon="4.94508">
        <ele>276.04</ele>
        <time>2019-06-17T09:12:10Z</time>
      </trkpt>
      <trkpt lat="49.60238" lon="4.94521">
        <ele>275.07</ele>
        <time>2019-06-17T09:12:28Z</time>
      </trkpt>
      <trkpt lat="49.60223" lon="4.94539">
        <ele>274.59</ele>
        <time>2019-06-17T09:12:47Z</time>
      </trkpt>
      <trkpt lat="49.60221" lon="4.94538">
        <ele>273.63</ele>
        <time>2019-06-17T09:12:59Z</time>
      </trkpt>
      <trkpt lat="49.60215" lon="4.94556">
        <ele>271.71</ele>
        <time>2019-06-17T09:13:12Z</time>
      </trkpt>
      <trkpt lat="49.60213" lon="4.94578">
        <ele>277</ele>
        <time>2019-06-17T09:13:26Z</time>
      </trkpt>
      <trkpt lat="49.60211" lon="4.94607">
        <ele>285.65</ele>
        <time>2019-06-17T09:13:44Z</time>
      </trkpt>
      <trkpt lat="49.60205" lon="4.94632">
        <ele>286.13</ele>
        <time>2019-06-17T09:14:00Z</time>
      </trkpt>
      <trkpt lat="49.602" lon="4.94667">
        <ele>278.44</ele>
        <time>2019-06-17T09:14:19Z</time>
      </trkpt>
      <trkpt lat="49.60193" lon="4.94699">
        <ele>268.35</ele>
        <time>2019-06-17T09:14:37Z</time>
      </trkpt>
      <trkpt lat="49.60188" lon="4.94723">
        <ele>263.54</ele>
        <time>2019-06-17T09:14:52Z</time>
      </trkpt>
      <trkpt lat="49.60181" lon="4.94748">
        <ele>260.17</ele>
        <time>2019-06-17T09:15:08Z</time>
      </trkpt>
      <trkpt lat="49.6018" lon="4.9475">
        <ele>259.69</ele>
        <time>2019-06-17T09:15:09Z</time>
      </trkpt>
      <trkpt lat="49.60172" lon="4.94774">
        <ele>253.93</ele>
        <time>2019-06-17T09:15:26Z</time>
      </trkpt>
      <trkpt lat="49.60163" lon="4.948">
        <ele>249.6</ele>
        <time>2019-06-17T09:15:42Z</time>
      </trkpt>
      <trkpt lat="49.60163" lon="4.94807">
        <ele>249.6</ele>
        <time>2019-06-17T09:15:45Z</time>
      </trkpt>
      <trkpt lat="49.60154" lon="4.94835">
        <ele>246.23</ele>
        <time>2019-06-17T09:16:03Z</time>
      </trkpt>
      <trkpt lat="49.60146" lon="4.94856">
        <ele>244.31</ele>
        <time>2019-06-17T09:16:18Z</time>
      </trkpt>
      <trkpt lat="49.6014" lon="4.94879">
        <ele>244.79</ele>
        <time>2019-06-17T09:16:32Z</time>
      </trkpt>
      <trkpt lat="49.60139" lon="4.94883">
        <ele>244.31</ele>
        <time>2019-06-17T09:16:35Z</time>
      </trkpt>
      <trkpt lat="49.60136" lon="4.94893">
        <ele>243.35</ele>
        <time>2019-06-17T09:16:42Z</time>
      </trkpt>
      <trkpt lat="49.60131" lon="4.94908">
        <ele>242.39</ele>
        <time>2019-06-17T09:16:58Z</time>
      </trkpt>
      <trkpt lat="49.60129" lon="4.94932">
        <ele>244.79</ele>
        <time>2019-06-17T09:17:14Z</time>
      </trkpt>
      <trkpt lat="49.60125" lon="4.94957">
        <ele>244.79</ele>
        <time>2019-06-17T09:17:29Z</time>
      </trkpt>
      <trkpt lat="49.60122" lon="4.94985">
        <ele>239.51</ele>
        <time>2019-06-17T09:17:46Z</time>
      </trkpt>
      <trkpt lat="49.60117" lon="4.95002">
        <ele>239.02</ele>
        <time>2019-06-17T09:18:00Z</time>
      </trkpt>
      <trkpt lat="49.60114" lon="4.95012">
        <ele>239.51</ele>
        <time>2019-06-17T09:18:04Z</time>
      </trkpt>
      <trkpt lat="49.60109" lon="4.95044">
        <ele>239.02</ele>
        <time>2019-06-17T09:18:20Z</time>
      </trkpt>
      <trkpt lat="49.60104" lon="4.95072">
        <ele>238.06</ele>
        <time>2019-06-17T09:18:37Z</time>
      </trkpt>
      <trkpt lat="49.60102" lon="4.95081">
        <ele>238.06</ele>
        <time>2019-06-17T09:18:42Z</time>
      </trkpt>
      <trkpt lat="49.60091" lon="4.95112">
        <ele>238.06</ele>
        <time>2019-06-17T09:19:00Z</time>
      </trkpt>
      <trkpt lat="49.60085" lon="4.95134">
        <ele>235.66</ele>
        <time>2019-06-17T09:19:13Z</time>
      </trkpt>
      <trkpt lat="49.60074" lon="4.95153">
        <ele>234.7</ele>
        <time>2019-06-17T09:19:26Z</time>
      </trkpt>
      <trkpt lat="49.60069" lon="4.95165">
        <ele>236.62</ele>
        <time>2019-06-17T09:19:36Z</time>
      </trkpt>
      <trkpt lat="49.60057" lon="4.95176">
        <ele>240.95</ele>
        <time>2019-06-17T09:19:53Z</time>
      </trkpt>
      <trkpt lat="49.60046" lon="4.95184">
        <ele>244.31</ele>
        <time>2019-06-17T09:20:09Z</time>
      </trkpt>
      <trkpt lat="49.60032" lon="4.95186">
        <ele>247.2</ele>
        <time>2019-06-17T09:20:25Z</time>
      </trkpt>
      <trkpt lat="49.60011" lon="4.95186">
        <ele>250.08</ele>
        <time>2019-06-17T09:20:44Z</time>
      </trkpt>
      <trkpt lat="49.59991" lon="4.95179">
        <ele>253.44</ele>
        <time>2019-06-17T09:20:56Z</time>
      </trkpt>
      <trkpt lat="49.59971" lon="4.95175">
        <ele>256.33</ele>
        <time>2019-06-17T09:21:14Z</time>
      </trkpt>
      <trkpt lat="49.59966" lon="4.95175">
        <ele>257.77</ele>
        <time>2019-06-17T09:21:30Z</time>
      </trkpt>
      <trkpt lat="49.59967" lon="4.95175">
        <ele>258.73</ele>
        <time>2019-06-17T09:21:53Z</time>
      </trkpt>
      <trkpt lat="49.59966" lon="4.95176">
        <ele>258.73</ele>
        <time>2019-06-17T09:22:18Z</time>
      </trkpt>
      <trkpt lat="49.59966" lon="4.95177">
        <ele>260.17</ele>
        <time>2019-06-17T09:22:44Z</time>
      </trkpt>
      <trkpt lat="49.59967" lon="4.95178">
        <ele>260.17</ele>
        <time>2019-06-17T09:23:08Z</time>
      </trkpt>
      <trkpt lat="49.59967" lon="4.9518">
        <ele>259.69</ele>
        <time>2019-06-17T09:23:35Z</time>
      </trkpt>
      <trkpt lat="49.59968" lon="4.95181">
        <ele>260.17</ele>
        <time>2019-06-17T09:24:06Z</time>
      </trkpt>
      <trkpt lat="49.59969" lon="4.95182">
        <ele>260.65</ele>
        <time>2019-06-17T09:24:32Z</time>
      </trkpt>
      <trkpt lat="49.59969" lon="4.95182">
        <ele>261.14</ele>
        <time>2019-06-17T09:25:03Z</time>
      </trkpt>
      <trkpt lat="49.59968" lon="4.95182">
        <ele>261.14</ele>
        <time>2019-06-17T09:25:25Z</time>
      </trkpt>
      <trkpt lat="49.59956" lon="4.95181">
        <ele>260.65</ele>
        <time>2019-06-17T09:25:42Z</time>
      </trkpt>
      <trkpt lat="49.59951" lon="4.9518">
        <ele>260.17</ele>
        <time>2019-06-17T09:25:47Z</time>
      </trkpt>
      <trkpt lat="49.59943" lon="4.95177">
        <ele>260.65</ele>
        <time>2019-06-17T09:25:53Z</time>
      </trkpt>
      <trkpt lat="49.59934" lon="4.95175">
        <ele>262.1</ele>
        <time>2019-06-17T09:26:00Z</time>
      </trkpt>
      <trkpt lat="49.59916" lon="4.9517">
        <ele>266.42</ele>
        <time>2019-06-17T09:26:17Z</time>
      </trkpt>
      <trkpt lat="49.59879" lon="4.95164">
        <ele>265.46</ele>
        <time>2019-06-17T09:26:38Z</time>
      </trkpt>
      <trkpt lat="49.59854" lon="4.9517">
        <ele>260.17</ele>
        <time>2019-06-17T09:26:58Z</time>
      </trkpt>
      <trkpt lat="49.59832" lon="4.95183">
        <ele>254.89</ele>
        <time>2019-06-17T09:27:16Z</time>
      </trkpt>
      <trkpt lat="49.59808" lon="4.952">
        <ele>244.79</ele>
        <time>2019-06-17T09:27:39Z</time>
      </trkpt>
      <trkpt lat="49.59796" lon="4.95209">
        <ele>239.51</ele>
        <time>2019-06-17T09:27:56Z</time>
      </trkpt>
      <trkpt lat="49.59781" lon="4.95219">
        <ele>236.62</ele>
        <time>2019-06-17T09:28:10Z</time>
      </trkpt>
      <trkpt lat="49.59767" lon="4.95239">
        <ele>233.74</ele>
        <time>2019-06-17T09:28:26Z</time>
      </trkpt>
      <trkpt lat="49.59747" lon="4.95256">
        <ele>229.41</ele>
        <time>2019-06-17T09:28:43Z</time>
      </trkpt>
      <trkpt lat="49.59724" lon="4.95271">
        <ele>221.72</ele>
        <time>2019-06-17T09:29:00Z</time>
      </trkpt>
      <trkpt lat="49.5971" lon="4.9528">
        <ele>214.51</ele>
        <time>2019-06-17T09:29:17Z</time>
      </trkpt>
      <trkpt lat="49.59692" lon="4.95291">
        <ele>210.67</ele>
        <time>2019-06-17T09:29:33Z</time>
      </trkpt>
      <trkpt lat="49.59678" lon="4.95301">
        <ele>209.22</ele>
        <time>2019-06-17T09:29:48Z</time>
      </trkpt>
      <trkpt lat="49.59664" lon="4.95315">
        <ele>208.74</ele>
        <time>2019-06-17T09:30:04Z</time>
      </trkpt>
      <trkpt lat="49.59656" lon="4.95324">
        <ele>208.26</ele>
        <time>2019-06-17T09:30:22Z</time>
      </trkpt>
      <trkpt lat="49.59656" lon="4.95325">
        <ele>208.26</ele>
        <time>2019-06-17T09:30:53Z</time>
      </trkpt>
      <trkpt lat="49.59655" lon="4.95327">
        <ele>208.74</ele>
        <time>2019-06-17T09:31:23Z</time>
      </trkpt>
      <trkpt lat="49.59655" lon="4.95328">
        <ele>208.74</ele>
        <time>2019-06-17T09:31:50Z</time>
      </trkpt>
      <trkpt lat="49.59656" lon="4.95328">
        <ele>209.7</ele>
        <time>2019-06-17T09:32:23Z</time>
      </trkpt>
      <trkpt lat="49.59657" lon="4.95329">
        <ele>211.15</ele>
        <time>2019-06-17T09:32:50Z</time>
      </trkpt>
      <trkpt lat="49.59657" lon="4.95328">
        <ele>212.59</ele>
        <time>2019-06-17T09:33:08Z</time>
      </trkpt>
      <trkpt lat="49.59658" lon="4.9533">
        <ele>213.07</ele>
        <time>2019-06-17T09:33:33Z</time>
      </trkpt>
      <trkpt lat="49.59658" lon="4.95329">
        <ele>212.59</ele>
        <time>2019-06-17T09:33:52Z</time>
      </trkpt>
      <trkpt lat="49.59657" lon="4.9533">
        <ele>212.11</ele>
        <time>2019-06-17T09:34:14Z</time>
      </trkpt>
      <trkpt lat="49.59657" lon="4.95331">
        <ele>211.63</ele>
        <time>2019-06-17T09:34:38Z</time>
      </trkpt>
      <trkpt lat="49.59658" lon="4.95331">
        <ele>212.11</ele>
        <time>2019-06-17T09:35:09Z</time>
      </trkpt>
      <trkpt lat="49.59658" lon="4.95331">
        <ele>212.11</ele>
        <time>2019-06-17T09:35:41Z</time>
      </trkpt>
      <trkpt lat="49.59658" lon="4.9533">
        <ele>212.11</ele>
        <time>2019-06-17T09:35:59Z</time>
      </trkpt>
      <trkpt lat="49.59648" lon="4.95335">
        <ele>210.19</ele>
        <time>2019-06-17T09:36:12Z</time>
      </trkpt>
      <trkpt lat="49.59645" lon="4.95336">
        <ele>209.7</ele>
        <time>2019-06-17T09:36:14Z</time>
      </trkpt>
      <trkpt lat="49.59625" lon="4.95343">
        <ele>206.34</ele>
        <time>2019-06-17T09:36:32Z</time>
      </trkpt>
      <trkpt lat="49.59604" lon="4.95354">
        <ele>204.42</ele>
        <time>2019-06-17T09:36:49Z</time>
      </trkpt>
      <trkpt lat="49.59585" lon="4.95365">
        <ele>199.61</ele>
        <time>2019-06-17T09:37:05Z</time>
      </trkpt>
      <trkpt lat="49.59565" lon="4.95373">
        <ele>195.77</ele>
        <time>2019-06-17T09:37:21Z</time>
      </trkpt>
      <trkpt lat="49.59546" lon="4.95384">
        <ele>198.17</ele>
        <time>2019-06-17T09:37:41Z</time>
      </trkpt>
      <trkpt lat="49.59532" lon="4.954">
        <ele>202.01</ele>
        <time>2019-06-17T09:37:57Z</time>
      </trkpt>
      <trkpt lat="49.5953" lon="4.95406">
        <ele>203.46</ele>
        <time>2019-06-17T09:38:00Z</time>
      </trkpt>
      <trkpt lat="49.59531" lon="4.95416">
        <ele>204.9</ele>
        <time>2019-06-17T09:38:04Z</time>
      </trkpt>
      <trkpt lat="49.59533" lon="4.9542">
        <ele>205.38</ele>
        <time>2019-06-17T09:38:06Z</time>
      </trkpt>
      <trkpt lat="49.59546" lon="4.95427">
        <ele>205.86</ele>
        <time>2019-06-17T09:38:19Z</time>
      </trkpt>
      <trkpt lat="49.59575" lon="4.95425">
        <ele>207.78</ele>
        <time>2019-06-17T09:38:43Z</time>
      </trkpt>
      <trkpt lat="49.59596" lon="4.95427">
        <ele>203.94</ele>
        <time>2019-06-17T09:39:01Z</time>
      </trkpt>
      <trkpt lat="49.59617" lon="4.95434">
        <ele>200.09</ele>
        <time>2019-06-17T09:39:20Z</time>
      </trkpt>
      <trkpt lat="49.59641" lon="4.95445">
        <ele>199.61</ele>
        <time>2019-06-17T09:39:40Z</time>
      </trkpt>
      <trkpt lat="49.5966" lon="4.95446">
        <ele>197.69</ele>
        <time>2019-06-17T09:39:58Z</time>
      </trkpt>
      <trkpt lat="49.59683" lon="4.95451">
        <ele>195.28</ele>
        <time>2019-06-17T09:40:19Z</time>
      </trkpt>
      <trkpt lat="49.59705" lon="4.95452">
        <ele>197.69</ele>
        <time>2019-06-17T09:40:36Z</time>
      </trkpt>
      <trkpt lat="49.59727" lon="4.95455">
        <ele>203.94</ele>
        <time>2019-06-17T09:40:54Z</time>
      </trkpt>
      <trkpt lat="49.59747" lon="4.95456">
        <ele>205.86</ele>
        <time>2019-06-17T09:41:11Z</time>
      </trkpt>
      <trkpt lat="49.59769" lon="4.9546">
        <ele>209.7</ele>
        <time>2019-06-17T09:41:28Z</time>
      </trkpt>
      <trkpt lat="49.59788" lon="4.95462">
        <ele>213.07</ele>
        <time>2019-06-17T09:41:45Z</time>
      </trkpt>
      <trkpt lat="49.59807" lon="4.95465">
        <ele>214.51</ele>
        <time>2019-06-17T09:42:01Z</time>
      </trkpt>
      <trkpt lat="49.59812" lon="4.95466">
        <ele>214.51</ele>
        <time>2019-06-17T09:42:05Z</time>
      </trkpt>
      <trkpt lat="49.59824" lon="4.95467">
        <ele>214.51</ele>
        <time>2019-06-17T09:42:16Z</time>
      </trkpt>
      <trkpt lat="49.59844" lon="4.9547">
        <ele>213.07</ele>
        <time>2019-06-17T09:42:33Z</time>
      </trkpt>
      <trkpt lat="49.59863" lon="4.95482">
        <ele>214.03</ele>
        <time>2019-06-17T09:42:51Z</time>
      </trkpt>
      <trkpt lat="49.59871" lon="4.95484">
        <ele>205.86</ele>
        <time>2019-06-17T09:43:05Z</time>
      </trkpt>
      <trkpt lat="49.59884" lon="4.95472">
        <ele>201.53</ele>
        <time>2019-06-17T09:43:21Z</time>
      </trkpt>
      <trkpt lat="49.59887" lon="4.95469">
        <ele>201.05</ele>
        <time>2019-06-17T09:43:24Z</time>
      </trkpt>
      <trkpt lat="49.59901" lon="4.95467">
        <ele>199.61</ele>
        <time>2019-06-17T09:43:42Z</time>
      </trkpt>
      <trkpt lat="49.59902" lon="4.9547">
        <ele>198.65</ele>
        <time>2019-06-17T09:44:06Z</time>
      </trkpt>
      <trkpt lat="49.59902" lon="4.9547">
        <ele>198.17</ele>
        <time>2019-06-17T09:44:35Z</time>
      </trkpt>
      <trkpt lat="49.59901" lon="4.95471">
        <ele>197.69</ele>
        <time>2019-06-17T09:45:01Z</time>
      </trkpt>
      <trkpt lat="49.59905" lon="4.95468">
        <ele>197.69</ele>
        <time>2019-06-17T09:45:16Z</time>
      </trkpt>
      <trkpt lat="49.59923" lon="4.95459">
        <ele>196.25</ele>
        <time>2019-06-17T09:45:36Z</time>
      </trkpt>
      <trkpt lat="49.59942" lon="4.95471">
        <ele>196.25</ele>
        <time>2019-06-17T09:45:54Z</time>
      </trkpt>
      <trkpt lat="49.59965" lon="4.95484">
        <ele>197.69</ele>
        <time>2019-06-17T09:46:16Z</time>
      </trkpt>
      <trkpt lat="49.59988" lon="4.95501">
        <ele>199.61</ele>
        <time>2019-06-17T09:46:35Z</time>
      </trkpt>
      <trkpt lat="49.60003" lon="4.9551">
        <ele>198.65</ele>
        <time>2019-06-17T09:46:49Z</time>
      </trkpt>
      <trkpt lat="49.60023" lon="4.95525">
        <ele>203.94</ele>
        <time>2019-06-17T09:47:05Z</time>
      </trkpt>
      <trkpt lat="49.60046" lon="4.95543">
        <ele>205.86</ele>
        <time>2019-06-17T09:47:26Z</time>
      </trkpt>
      <trkpt lat="49.60066" lon="4.95551">
        <ele>205.86</ele>
        <time>2019-06-17T09:47:41Z</time>
      </trkpt>
      <trkpt lat="49.6009" lon="4.95556">
        <ele>204.9</ele>
        <time>2019-06-17T09:48:01Z</time>
      </trkpt>
      <trkpt lat="49.6009" lon="4.95555">
        <ele>204.9</ele>
        <time>2019-06-17T09:48:02Z</time>
      </trkpt>
      <trkpt lat="49.60112" lon="4.95541">
        <ele>200.57</ele>
        <time>2019-06-17T09:48:20Z</time>
      </trkpt>
      <trkpt lat="49.60129" lon="4.95534">
        <ele>201.53</ele>
        <time>2019-06-17T09:48:34Z</time>
      </trkpt>
      <trkpt lat="49.60134" lon="4.95531">
        <ele>201.53</ele>
        <time>2019-06-17T09:48:39Z</time>
      </trkpt>
      <trkpt lat="49.60147" lon="4.95523">
        <ele>200.09</ele>
        <time>2019-06-17T09:48:51Z</time>
      </trkpt>
      <trkpt lat="49.60164" lon="4.95519">
        <ele>201.05</ele>
        <time>2019-06-17T09:49:06Z</time>
      </trkpt>
      <trkpt lat="49.60187" lon="4.95511">
        <ele>197.21</ele>
        <time>2019-06-17T09:49:26Z</time>
      </trkpt>
      <trkpt lat="49.60204" lon="4.9551">
        <ele>196.25</ele>
        <time>2019-06-17T09:49:39Z</time>
      </trkpt>
      <trkpt lat="49.60227" lon="4.95508">
        <ele>194.32</ele>
        <time>2019-06-17T09:49:56Z</time>
      </trkpt>
      <trkpt lat="49.60246" lon="4.95517">
        <ele>195.28</ele>
        <time>2019-06-17T09:50:28Z</time>
      </trkpt>
      <trkpt lat="49.60261" lon="4.95523">
        <ele>194.8</ele>
        <time>2019-06-17T09:50:43Z</time>
      </trkpt>
      <trkpt lat="49.60272" lon="4.95526">
        <ele>191.44</ele>
        <time>2019-06-17T09:50:55Z</time>
      </trkpt>
      <trkpt lat="49.60295" lon="4.9553">
        <ele>193.36</ele>
        <time>2019-06-17T09:51:07Z</time>
      </trkpt>
      <trkpt lat="49.60318" lon="4.95528">
        <ele>187.59</ele>
        <time>2019-06-17T09:51:23Z</time>
      </trkpt>
      <trkpt lat="49.60319" lon="4.95529">
        <ele>186.63</ele>
        <time>2019-06-17T09:51:24Z</time>
      </trkpt>
      <trkpt lat="49.60321" lon="4.95531">
        <ele>182.79</ele>
        <time>2019-06-17T09:51:28Z</time>
      </trkpt>
      <trkpt lat="49.60324" lon="4.9553">
        <ele>180.87</ele>
        <time>2019-06-17T09:51:31Z</time>
      </trkpt>
      <trkpt lat="49.60337" lon="4.95545">
        <ele>172.69</ele>
        <time>2019-06-17T09:51:47Z</time>
      </trkpt>
      <trkpt lat="49.60341" lon="4.95551">
        <ele>173.66</ele>
        <time>2019-06-17T09:51:59Z</time>
      </trkpt>
      <trkpt lat="49.60342" lon="4.95552">
        <ele>173.17</ele>
        <time>2019-06-17T09:52:22Z</time>
      </trkpt>
      <trkpt lat="49.60342" lon="4.95553">
        <ele>172.69</ele>
        <time>2019-06-17T09:52:55Z</time>
      </trkpt>
      <trkpt lat="49.60342" lon="4.95553">
        <ele>172.21</ele>
        <time>2019-06-17T09:53:19Z</time>
      </trkpt>
      <trkpt lat="49.60348" lon="4.95551">
        <ele>169.81</ele>
        <time>2019-06-17T09:53:34Z</time>
      </trkpt>
      <trkpt lat="49.60358" lon="4.95555">
        <ele>169.33</ele>
        <time>2019-06-17T09:53:53Z</time>
      </trkpt>
      <trkpt lat="49.6037" lon="4.95556">
        <ele>170.29</ele>
        <time>2019-06-17T09:54:05Z</time>
      </trkpt>
      <trkpt lat="49.60376" lon="4.95558">
        <ele>171.25</ele>
        <time>2019-06-17T09:54:24Z</time>
      </trkpt>
      <trkpt lat="49.6038" lon="4.95557">
        <ele>171.25</ele>
        <time>2019-06-17T09:54:44Z</time>
      </trkpt>
      <trkpt lat="49.60397" lon="4.95551">
        <ele>169.33</ele>
        <time>2019-06-17T09:55:02Z</time>
      </trkpt>
      <trkpt lat="49.60399" lon="4.95554">
        <ele>169.81</ele>
        <time>2019-06-17T09:55:27Z</time>
      </trkpt>
      <trkpt lat="49.604" lon="4.95554">
        <ele>169.33</ele>
        <time>2019-06-17T09:55:32Z</time>
      </trkpt>
      <trkpt lat="49.60401" lon="4.95553">
        <ele>168.85</ele>
        <time>2019-06-17T09:55:34Z</time>
      </trkpt>
      <trkpt lat="49.6042" lon="4.95542">
        <ele>165</ele>
        <time>2019-06-17T09:55:45Z</time>
      </trkpt>
      <trkpt lat="49.60435" lon="4.95526">
        <ele>160.2</ele>
        <time>2019-06-17T09:55:59Z</time>
      </trkpt>
      <trkpt lat="49.60439" lon="4.95522">
        <ele>160.2</ele>
        <time>2019-06-17T09:56:03Z</time>
      </trkpt>
      <trkpt lat="49.60454" lon="4.95507">
        <ele>157.79</ele>
        <time>2019-06-17T09:56:17Z</time>
      </trkpt>
      <trkpt lat="49.60473" lon="4.95493">
        <ele>153.95</ele>
        <time>2019-06-17T09:56:34Z</time>
      </trkpt>
      <trkpt lat="49.60493" lon="4.95481">
        <ele>149.14</ele>
        <time>2019-06-17T09:56:52Z</time>
      </trkpt>
      <trkpt lat="49.60508" lon="4.95472">
        <ele>146.26</ele>
        <time>2019-06-17T09:57:06Z</time>
      </trkpt>
      <trkpt lat="49.60521" lon="4.95459">
        <ele>144.34</ele>
        <time>2019-06-17T09:57:21Z</time>
      </trkpt>
      <trkpt lat="49.60534" lon="4.95449">
        <ele>142.41</ele>
        <time>2019-06-17T09:57:33Z</time>
      </trkpt>
      <trkpt lat="49.60553" lon="4.95445">
        <ele>139.53</ele>
        <time>2019-06-17T09:57:49Z</time>
      </trkpt>
      <trkpt lat="49.60571" lon="4.95441">
        <ele>134.24</ele>
        <time>2019-06-17T09:58:08Z</time>
      </trkpt>
      <trkpt lat="49.60581" lon="4.95438">
        <ele>129.92</ele>
        <time>2019-06-17T09:58:22Z</time>
      </trkpt>
      <trkpt lat="49.60591" lon="4.95435">
        <ele>124.15</ele>
        <time>2019-06-17T09:58:36Z</time>
      </trkpt>
      <trkpt lat="49.606" lon="4.95432">
        <ele>125.11</ele>
        <time>2019-06-17T09:58:56Z</time>
      </trkpt>
      <trkpt lat="49.60638" lon="4.95421">
        <ele>126.55</ele>
        <time>2019-06-17T09:59:15Z</time>
      </trkpt>
      <trkpt lat="49.60646" lon="4.95421">
        <ele>126.55</ele>
        <time>2019-06-17T09:59:20Z</time>
      </trkpt>
      <trkpt lat="49.60665" lon="4.95416">
        <ele>122.71</ele>
        <time>2019-06-17T09:59:39Z</time>
      </trkpt>
      <trkpt lat="49.60688" lon="4.95408">
        <ele>120.78</ele>
        <time>2019-06-17T09:59:57Z</time>
      </trkpt>
      <trkpt lat="49.60707" lon="4.95402">
        <ele>121.74</ele>
        <time>2019-06-17T10:00:13Z</time>
      </trkpt>
      <trkpt lat="49.6073" lon="4.95396">
        <ele>124.15</ele>
        <time>2019-06-17T10:00:33Z</time>
      </trkpt>
      <trkpt lat="49.60742" lon="4.95395">
        <ele>127.03</ele>
        <time>2019-06-17T10:00:42Z</time>
      </trkpt>
      <trkpt lat="49.60755" lon="4.95399">
        <ele>129.92</ele>
        <time>2019-06-17T10:00:51Z</time>
      </trkpt>
      <trkpt lat="49.60767" lon="4.954">
        <ele>131.84</ele>
        <time>2019-06-17T10:01:00Z</time>
      </trkpt>
      <trkpt lat="49.60784" lon="4.95413">
        <ele>136.16</ele>
        <time>2019-06-17T10:01:13Z</time>
      </trkpt>
      <trkpt lat="49.60799" lon="4.95422">
        <ele>145.3</ele>
        <time>2019-06-17T10:01:28Z</time>
      </trkpt>
      <trkpt lat="49.60817" lon="4.95427">
        <ele>145.78</ele>
        <time>2019-06-17T10:01:47Z</time>
      </trkpt>
      <trkpt lat="49.60837" lon="4.95437">
        <ele>144.82</ele>
        <time>2019-06-17T10:02:08Z</time>
      </trkpt>
      <trkpt lat="49.60848" lon="4.95448">
        <ele>147.7</ele>
        <time>2019-06-17T10:02:19Z</time>
      </trkpt>
      <trkpt lat="49.60868" lon="4.95472">
        <ele>152.99</ele>
        <time>2019-06-17T10:02:38Z</time>
      </trkpt>
      <trkpt lat="49.60869" lon="4.95475">
        <ele>153.95</ele>
        <time>2019-06-17T10:02:56Z</time>
      </trkpt>
      <trkpt lat="49.60868" lon="4.95479">
        <ele>153.47</ele>
        <time>2019-06-17T10:03:20Z</time>
      </trkpt>
      <trkpt lat="49.60868" lon="4.95478">
        <ele>154.43</ele>
        <time>2019-06-17T10:03:47Z</time>
      </trkpt>
      <trkpt lat="49.60868" lon="4.95478">
        <ele>152.99</ele>
        <time>2019-06-17T10:04:15Z</time>
      </trkpt>
      <trkpt lat="49.60869" lon="4.95477">
        <ele>154.91</ele>
        <time>2019-06-17T10:04:38Z</time>
      </trkpt>
      <trkpt lat="49.60871" lon="4.95473">
        <ele>155.87</ele>
        <time>2019-06-17T10:05:07Z</time>
      </trkpt>
      <trkpt lat="49.60873" lon="4.95471">
        <ele>155.87</ele>
        <time>2019-06-17T10:05:33Z</time>
      </trkpt>
      <trkpt lat="49.60875" lon="4.9547">
        <ele>157.31</ele>
        <time>2019-06-17T10:06:04Z</time>
      </trkpt>
      <trkpt lat="49.60875" lon="4.9547">
        <ele>158.27</ele>
        <time>2019-06-17T10:06:15Z</time>
      </trkpt>
      <trkpt lat="49.60876" lon="4.95469">
        <ele>159.72</ele>
        <time>2019-06-17T10:06:40Z</time>
      </trkpt>
      <trkpt lat="49.60876" lon="4.95469">
        <ele>160.68</ele>
        <time>2019-06-17T10:07:05Z</time>
      </trkpt>
      <trkpt lat="49.60876" lon="4.95468">
        <ele>162.12</ele>
        <time>2019-06-17T10:07:29Z</time>
      </trkpt>
      <trkpt lat="49.60876" lon="4.95462">
        <ele>165.48</ele>
        <time>2019-06-17T10:07:51Z</time>
      </trkpt>
      <trkpt lat="49.60875" lon="4.95462">
        <ele>167.41</ele>
        <time>2019-06-17T10:08:20Z</time>
      </trkpt>
      <trkpt lat="49.60876" lon="4.9546">
        <ele>168.85</ele>
        <time>2019-06-17T10:08:24Z</time>
      </trkpt>
      <trkpt lat="49.60877" lon="4.95459">
        <ele>169.81</ele>
        <time>2019-06-17T10:08:26Z</time>
      </trkpt>
      <trkpt lat="49.6088" lon="4.9546">
        <ele>170.29</ele>
        <time>2019-06-17T10:08:29Z</time>
      </trkpt>
      <trkpt lat="49.60882" lon="4.9546">
        <ele>170.77</ele>
        <time>2019-06-17T10:08:31Z</time>
      </trkpt>
      <trkpt lat="49.609" lon="4.95469">
        <ele>176.06</ele>
        <time>2019-06-17T10:08:46Z</time>
      </trkpt>
      <trkpt lat="49.60917" lon="4.95481">
        <ele>183.75</ele>
        <time>2019-06-17T10:09:00Z</time>
      </trkpt>
      <trkpt lat="49.60934" lon="4.95493">
        <ele>184.23</ele>
        <time>2019-06-17T10:09:19Z</time>
      </trkpt>
      <trkpt lat="49.60956" lon="4.95505">
        <ele>184.23</ele>
        <time>2019-06-17T10:09:40Z</time>
      </trkpt>
      <trkpt lat="49.60975" lon="4.95515">
        <ele>186.15</ele>
        <time>2019-06-17T10:09:56Z</time>
      </trkpt>
      <trkpt lat="49.60996" lon="4.9553">
        <ele>186.63</ele>
        <time>2019-06-17T10:10:14Z</time>
      </trkpt>
      <trkpt lat="49.61015" lon="4.95541">
        <ele>189.04</ele>
        <time>2019-06-17T10:10:31Z</time>
      </trkpt>
      <trkpt lat="49.61035" lon="4.95558">
        <ele>190</ele>
        <time>2019-06-17T10:10:47Z</time>
      </trkpt>
      <trkpt lat="49.61056" lon="4.95574">
        <ele>190</ele>
        <time>2019-06-17T10:11:05Z</time>
      </trkpt>
      <trkpt lat="49.61076" lon="4.95589">
        <ele>191.92</ele>
        <time>2019-06-17T10:11:25Z</time>
      </trkpt>
      <trkpt lat="49.61102" lon="4.95602">
        <ele>190.96</ele>
        <time>2019-06-17T10:11:43Z</time>
      </trkpt>
      <trkpt lat="49.61129" lon="4.95614">
        <ele>186.15</ele>
        <time>2019-06-17T10:12:01Z</time>
      </trkpt>
      <trkpt lat="49.61148" lon="4.95625">
        <ele>185.19</ele>
        <time>2019-06-17T10:12:19Z</time>
      </trkpt>
      <trkpt lat="49.61165" lon="4.95639">
        <ele>186.15</ele>
        <time>2019-06-17T10:12:39Z</time>
      </trkpt>
      <trkpt lat="49.61183" lon="4.95654">
        <ele>187.11</ele>
        <time>2019-06-17T10:12:58Z</time>
      </trkpt>
      <trkpt lat="49.61209" lon="4.95666">
        <ele>187.11</ele>
        <time>2019-06-17T10:13:19Z</time>
      </trkpt>
      <trkpt lat="49.61229" lon="4.95681">
        <ele>190.96</ele>
        <time>2019-06-17T10:13:37Z</time>
      </trkpt>
      <trkpt lat="49.61253" lon="4.95695">
        <ele>187.11</ele>
        <time>2019-06-17T10:13:57Z</time>
      </trkpt>
      <trkpt lat="49.61273" lon="4.9571">
        <ele>183.27</ele>
        <time>2019-06-17T10:14:17Z</time>
      </trkpt>
      <trkpt lat="49.61292" lon="4.95728">
        <ele>181.35</ele>
        <time>2019-06-17T10:14:36Z</time>
      </trkpt>
      <trkpt lat="49.61313" lon="4.95746">
        <ele>181.83</ele>
        <time>2019-06-17T10:14:56Z</time>
      </trkpt>
      <trkpt lat="49.61333" lon="4.95769">
        <ele>182.31</ele>
        <time>2019-06-17T10:15:14Z</time>
      </trkpt>
      <trkpt lat="49.61349" lon="4.95785">
        <ele>176.54</ele>
        <time>2019-06-17T10:15:31Z</time>
      </trkpt>
      <trkpt lat="49.61369" lon="4.95804">
        <ele>176.06</ele>
        <time>2019-06-17T10:15:50Z</time>
      </trkpt>
      <trkpt lat="49.61383" lon="4.95818">
        <ele>173.66</ele>
        <time>2019-06-17T10:16:07Z</time>
      </trkpt>
      <trkpt lat="49.61401" lon="4.95842">
        <ele>174.62</ele>
        <time>2019-06-17T10:16:28Z</time>
      </trkpt>
      <trkpt lat="49.61416" lon="4.95871">
        <ele>176.54</ele>
        <time>2019-06-17T10:16:47Z</time>
      </trkpt>
      <trkpt lat="49.61436" lon="4.95898">
        <ele>177.5</ele>
        <time>2019-06-17T10:17:10Z</time>
      </trkpt>
      <trkpt lat="49.61445" lon="4.9592">
        <ele>178.46</ele>
        <time>2019-06-17T10:17:29Z</time>
      </trkpt>
      <trkpt lat="49.61467" lon="4.95943">
        <ele>176.54</ele>
        <time>2019-06-17T10:17:51Z</time>
      </trkpt>
      <trkpt lat="49.6147" lon="4.95946">
        <ele>176.06</ele>
        <time>2019-06-17T10:17:54Z</time>
      </trkpt>
      <trkpt lat="49.61489" lon="4.95967">
        <ele>175.58</ele>
        <time>2019-06-17T10:18:13Z</time>
      </trkpt>
      <trkpt lat="49.61511" lon="4.95988">
        <ele>178.94</ele>
        <time>2019-06-17T10:18:31Z</time>
      </trkpt>
      <trkpt lat="49.61531" lon="4.95992">
        <ele>177.02</ele>
        <time>2019-06-17T10:18:50Z</time>
      </trkpt>
      <trkpt lat="49.61538" lon="4.95994">
        <ele>176.06</ele>
        <time>2019-06-17T10:18:59Z</time>
      </trkpt>
      <trkpt lat="49.61562" lon="4.96009">
        <ele>176.54</ele>
        <time>2019-06-17T10:19:17Z</time>
      </trkpt>
      <trkpt lat="49.61581" lon="4.96016">
        <ele>180.87</ele>
        <time>2019-06-17T10:19:35Z</time>
      </trkpt>
      <trkpt lat="49.61608" lon="4.96024">
        <ele>178.94</ele>
        <time>2019-06-17T10:19:55Z</time>
      </trkpt>
      <trkpt lat="49.61627" lon="4.96033">
        <ele>178.46</ele>
        <time>2019-06-17T10:20:13Z</time>
      </trkpt>
      <trkpt lat="49.61642" lon="4.96042">
        <ele>181.35</ele>
        <time>2019-06-17T10:20:26Z</time>
      </trkpt>
      <trkpt lat="49.61661" lon="4.96047">
        <ele>185.67</ele>
        <time>2019-06-17T10:20:46Z</time>
      </trkpt>
      <trkpt lat="49.61684" lon="4.96048">
        <ele>189.04</ele>
        <time>2019-06-17T10:21:06Z</time>
      </trkpt>
      <trkpt lat="49.61707" lon="4.96053">
        <ele>190</ele>
        <time>2019-06-17T10:21:25Z</time>
      </trkpt>
      <trkpt lat="49.61727" lon="4.9606">
        <ele>191.44</ele>
        <time>2019-06-17T10:21:43Z</time>
      </trkpt>
      <trkpt lat="49.61745" lon="4.96067">
        <ele>190.96</ele>
        <time>2019-06-17T10:21:59Z</time>
      </trkpt>
      <trkpt lat="49.61765" lon="4.96072">
        <ele>187.59</ele>
        <time>2019-06-17T10:22:16Z</time>
      </trkpt>
      <trkpt lat="49.61777" lon="4.96075">
        <ele>191.92</ele>
        <time>2019-06-17T10:22:33Z</time>
      </trkpt>
      <trkpt lat="49.61781" lon="4.96075">
        <ele>192.4</ele>
        <time>2019-06-17T10:22:36Z</time>
      </trkpt>
      <trkpt lat="49.61809" lon="4.96082">
        <ele>189.52</ele>
        <time>2019-06-17T10:22:54Z</time>
      </trkpt>
      <trkpt lat="49.61834" lon="4.96088">
        <ele>184.23</ele>
        <time>2019-06-17T10:23:11Z</time>
      </trkpt>
      <trkpt lat="49.61852" lon="4.96094">
        <ele>180.87</ele>
        <time>2019-06-17T10:23:28Z</time>
      </trkpt>
      <trkpt lat="49.61875" lon="4.96099">
        <ele>179.42</ele>
        <time>2019-06-17T10:23:48Z</time>
      </trkpt>
      <trkpt lat="49.61896" lon="4.96107">
        <ele>179.42</ele>
        <time>2019-06-17T10:24:07Z</time>
      </trkpt>
      <trkpt lat="49.61922" lon="4.96112">
        <ele>178.94</ele>
        <time>2019-06-17T10:24:29Z</time>
      </trkpt>
      <trkpt lat="49.61946" lon="4.96115">
        <ele>180.38</ele>
        <time>2019-06-17T10:24:49Z</time>
      </trkpt>
      <trkpt lat="49.61971" lon="4.9612">
        <ele>183.27</ele>
        <time>2019-06-17T10:25:10Z</time>
      </trkpt>
      <trkpt lat="49.61991" lon="4.9613">
        <ele>183.27</ele>
        <time>2019-06-17T10:25:25Z</time>
      </trkpt>
      <trkpt lat="49.62011" lon="4.96135">
        <ele>183.27</ele>
        <time>2019-06-17T10:25:41Z</time>
      </trkpt>
      <trkpt lat="49.62028" lon="4.96138">
        <ele>181.35</ele>
        <time>2019-06-17T10:25:55Z</time>
      </trkpt>
      <trkpt lat="49.62032" lon="4.96138">
        <ele>183.75</ele>
        <time>2019-06-17T10:26:00Z</time>
      </trkpt>
      <trkpt lat="49.62041" lon="4.96141">
        <ele>185.19</ele>
        <time>2019-06-17T10:26:07Z</time>
      </trkpt>
      <trkpt lat="49.62061" lon="4.96148">
        <ele>186.63</ele>
        <time>2019-06-17T10:26:25Z</time>
      </trkpt>
      <trkpt lat="49.6208" lon="4.96156">
        <ele>190.48</ele>
        <time>2019-06-17T10:26:40Z</time>
      </trkpt>
      <trkpt lat="49.62104" lon="4.9616">
        <ele>184.71</ele>
        <time>2019-06-17T10:27:00Z</time>
      </trkpt>
      <trkpt lat="49.62123" lon="4.96164">
        <ele>183.27</ele>
        <time>2019-06-17T10:27:17Z</time>
      </trkpt>
      <trkpt lat="49.62145" lon="4.96172">
        <ele>183.75</ele>
        <time>2019-06-17T10:27:36Z</time>
      </trkpt>
      <trkpt lat="49.62157" lon="4.96175">
        <ele>182.31</ele>
        <time>2019-06-17T10:27:46Z</time>
      </trkpt>
      <trkpt lat="49.62177" lon="4.9618">
        <ele>182.31</ele>
        <time>2019-06-17T10:28:03Z</time>
      </trkpt>
      <trkpt lat="49.62194" lon="4.96183">
        <ele>183.75</ele>
        <time>2019-06-17T10:28:19Z</time>
      </trkpt>
      <trkpt lat="49.62205" lon="4.96191">
        <ele>183.27</ele>
        <time>2019-06-17T10:28:29Z</time>
      </trkpt>
      <trkpt lat="49.62216" lon="4.96191">
        <ele>183.27</ele>
        <time>2019-06-17T10:28:38Z</time>
      </trkpt>
      <trkpt lat="49.62223" lon="4.96191">
        <ele>183.75</ele>
        <time>2019-06-17T10:28:45Z</time>
      </trkpt>
      <trkpt lat="49.62243" lon="4.96193">
        <ele>187.11</ele>
        <time>2019-06-17T10:29:02Z</time>
      </trkpt>
      <trkpt lat="49.62261" lon="4.96198">
        <ele>186.63</ele>
        <time>2019-06-17T10:29:19Z</time>
      </trkpt>
      <trkpt lat="49.62277" lon="4.96202">
        <ele>194.32</ele>
        <time>2019-06-17T10:29:38Z</time>
      </trkpt>
      <trkpt lat="49.62301" lon="4.96215">
        <ele>187.11</ele>
        <time>2019-06-17T10:29:57Z</time>
      </trkpt>
      <trkpt lat="49.62328" lon="4.96217">
        <ele>187.59</ele>
        <time>2019-06-17T10:30:19Z</time>
      </trkpt>
      <trkpt lat="49.62352" lon="4.96221">
        <ele>187.59</ele>
        <time>2019-06-17T10:30:35Z</time>
      </trkpt>
      <trkpt lat="49.62369" lon="4.96225">
        <ele>182.79</ele>
        <time>2019-06-17T10:30:48Z</time>
      </trkpt>
      <trkpt lat="49.62386" lon="4.96234">
        <ele>177.02</ele>
        <time>2019-06-17T10:31:05Z</time>
      </trkpt>
      <trkpt lat="49.62389" lon="4.96237">
        <ele>176.06</ele>
        <time>2019-06-17T10:31:08Z</time>
      </trkpt>
      <trkpt lat="49.62393" lon="4.96238">
        <ele>176.06</ele>
        <time>2019-06-17T10:31:11Z</time>
      </trkpt>
      <trkpt lat="49.62416" lon="4.96239">
        <ele>176.06</ele>
        <time>2019-06-17T10:31:30Z</time>
      </trkpt>
      <trkpt lat="49.62424" lon="4.96243">
        <ele>176.06</ele>
        <time>2019-06-17T10:31:38Z</time>
      </trkpt>
      <trkpt lat="49.62441" lon="4.96253">
        <ele>176.54</ele>
        <time>2019-06-17T10:31:54Z</time>
      </trkpt>
      <trkpt lat="49.62447" lon="4.96257">
        <ele>176.54</ele>
        <time>2019-06-17T10:31:59Z</time>
      </trkpt>
      <trkpt lat="49.62451" lon="4.96261">
        <ele>176.54</ele>
        <time>2019-06-17T10:32:03Z</time>
      </trkpt>
      <trkpt lat="49.62468" lon="4.96272">
        <ele>179.42</ele>
        <time>2019-06-17T10:32:18Z</time>
      </trkpt>
      <trkpt lat="49.62487" lon="4.96283">
        <ele>179.9</ele>
        <time>2019-06-17T10:32:37Z</time>
      </trkpt>
      <trkpt lat="49.62506" lon="4.96297">
        <ele>179.42</ele>
        <time>2019-06-17T10:32:54Z</time>
      </trkpt>
      <trkpt lat="49.62527" lon="4.96306">
        <ele>183.75</ele>
        <time>2019-06-17T10:33:12Z</time>
      </trkpt>
      <trkpt lat="49.62548" lon="4.96317">
        <ele>183.27</ele>
        <time>2019-06-17T10:33:30Z</time>
      </trkpt>
      <trkpt lat="49.62567" lon="4.9633">
        <ele>180.38</ele>
        <time>2019-06-17T10:33:48Z</time>
      </trkpt>
      <trkpt lat="49.6257" lon="4.96331">
        <ele>180.87</ele>
        <time>2019-06-17T10:33:51Z</time>
      </trkpt>
      <trkpt lat="49.6259" lon="4.9634">
        <ele>180.87</ele>
        <time>2019-06-17T10:34:07Z</time>
      </trkpt>
      <trkpt lat="49.62596" lon="4.96343">
        <ele>179.42</ele>
        <time>2019-06-17T10:34:12Z</time>
      </trkpt>
      <trkpt lat="49.62611" lon="4.96355">
        <ele>174.62</ele>
        <time>2019-06-17T10:34:27Z</time>
      </trkpt>
      <trkpt lat="49.62631" lon="4.96362">
        <ele>177.5</ele>
        <time>2019-06-17T10:34:46Z</time>
      </trkpt>
      <trkpt lat="49.62648" lon="4.96369">
        <ele>180.38</ele>
        <time>2019-06-17T10:35:02Z</time>
      </trkpt>
      <trkpt lat="49.62668" lon="4.96387">
        <ele>180.87</ele>
        <time>2019-06-17T10:35:22Z</time>
      </trkpt>
      <trkpt lat="49.62676" lon="4.9639">
        <ele>179.9</ele>
        <time>2019-06-17T10:35:28Z</time>
      </trkpt>
      <trkpt lat="49.62679" lon="4.96389">
        <ele>180.38</ele>
        <time>2019-06-17T10:35:45Z</time>
      </trkpt>
      <trkpt lat="49.62677" lon="4.96387">
        <ele>180.38</ele>
        <time>2019-06-17T10:36:09Z</time>
      </trkpt>
      <trkpt lat="49.62678" lon="4.96386">
        <ele>180.38</ele>
        <time>2019-06-17T10:36:37Z</time>
      </trkpt>
      <trkpt lat="49.62679" lon="4.96381">
        <ele>179.9</ele>
        <time>2019-06-17T10:37:00Z</time>
      </trkpt>
      <trkpt lat="49.62679" lon="4.96382">
        <ele>179.9</ele>
        <time>2019-06-17T10:37:22Z</time>
      </trkpt>
      <trkpt lat="49.62679" lon="4.96381">
        <ele>180.87</ele>
        <time>2019-06-17T10:37:52Z</time>
      </trkpt>
      <trkpt lat="49.62679" lon="4.96381">
        <ele>179.42</ele>
        <time>2019-06-17T10:38:14Z</time>
      </trkpt>
      <trkpt lat="49.62679" lon="4.96382">
        <ele>177.98</ele>
        <time>2019-06-17T10:38:40Z</time>
      </trkpt>
      <trkpt lat="49.6268" lon="4.96384">
        <ele>177.02</ele>
        <time>2019-06-17T10:39:14Z</time>
      </trkpt>
      <trkpt lat="49.6268" lon="4.96385">
        <ele>176.54</ele>
        <time>2019-06-17T10:39:43Z</time>
      </trkpt>
      <trkpt lat="49.62681" lon="4.96386">
        <ele>176.06</ele>
        <time>2019-06-17T10:40:05Z</time>
      </trkpt>
      <trkpt lat="49.62686" lon="4.96391">
        <ele>175.1</ele>
        <time>2019-06-17T10:40:20Z</time>
      </trkpt>
      <trkpt lat="49.62708" lon="4.96406">
        <ele>177.02</ele>
        <time>2019-06-17T10:40:39Z</time>
      </trkpt>
      <trkpt lat="49.62729" lon="4.96417">
        <ele>177.5</ele>
        <time>2019-06-17T10:40:53Z</time>
      </trkpt>
      <trkpt lat="49.62748" lon="4.96425">
        <ele>177.5</ele>
        <time>2019-06-17T10:41:08Z</time>
      </trkpt>
      <trkpt lat="49.62764" lon="4.96436">
        <ele>178.46</ele>
        <time>2019-06-17T10:41:23Z</time>
      </trkpt>
      <trkpt lat="49.62775" lon="4.9644">
        <ele>176.06</ele>
        <time>2019-06-17T10:41:35Z</time>
      </trkpt>
      <trkpt lat="49.62797" lon="4.96451">
        <ele>176.54</ele>
        <time>2019-06-17T10:41:52Z</time>
      </trkpt>
      <trkpt lat="49.6281" lon="4.96457">
        <ele>175.58</ele>
        <time>2019-06-17T10:42:06Z</time>
      </trkpt>
      <trkpt lat="49.62824" lon="4.96463">
        <ele>175.58</ele>
        <time>2019-06-17T10:42:17Z</time>
      </trkpt>
      <trkpt lat="49.62829" lon="4.96465">
        <ele>176.06</ele>
        <time>2019-06-17T10:42:21Z</time>
      </trkpt>
      <trkpt lat="49.62849" lon="4.96481">
        <ele>177.02</ele>
        <time>2019-06-17T10:42:36Z</time>
      </trkpt>
      <trkpt lat="49.62855" lon="4.96483">
        <ele>177.02</ele>
        <time>2019-06-17T10:42:41Z</time>
      </trkpt>
      <trkpt lat="49.62858" lon="4.96484">
        <ele>177.02</ele>
        <time>2019-06-17T10:42:44Z</time>
      </trkpt>
      <trkpt lat="49.62874" lon="4.96495">
        <ele>177.98</ele>
        <time>2019-06-17T10:42:58Z</time>
      </trkpt>
      <trkpt lat="49.62893" lon="4.96509">
        <ele>178.46</ele>
        <time>2019-06-17T10:43:15Z</time>
      </trkpt>
      <trkpt lat="49.62911" lon="4.96519">
        <ele>174.62</ele>
        <time>2019-06-17T10:43:30Z</time>
      </trkpt>
      <trkpt lat="49.62917" lon="4.96523">
        <ele>173.17</ele>
        <time>2019-06-17T10:43:35Z</time>
      </trkpt>
      <trkpt lat="49.62931" lon="4.96534">
        <ele>167.89</ele>
        <time>2019-06-17T10:43:50Z</time>
      </trkpt>
      <trkpt lat="49.62945" lon="4.96545">
        <ele>166.45</ele>
        <time>2019-06-17T10:44:04Z</time>
      </trkpt>
      <trkpt lat="49.62958" lon="4.96555">
        <ele>166.45</ele>
        <time>2019-06-17T10:44:19Z</time>
      </trkpt>
      <trkpt lat="49.62971" lon="4.9657">
        <ele>168.85</ele>
        <time>2019-06-17T10:44:34Z</time>
      </trkpt>
      <trkpt lat="49.62986" lon="4.96584">
        <ele>170.77</ele>
        <time>2019-06-17T10:44:50Z</time>
      </trkpt>
      <trkpt lat="49.63001" lon="4.96598">
        <ele>171.73</ele>
        <time>2019-06-17T10:45:05Z</time>
      </trkpt>
      <trkpt lat="49.63017" lon="4.96611">
        <ele>173.66</ele>
        <time>2019-06-17T10:45:21Z</time>
      </trkpt>
      <trkpt lat="49.63035" lon="4.96626">
        <ele>174.62</ele>
        <time>2019-06-17T10:45:36Z</time>
      </trkpt>
      <trkpt lat="49.63051" lon="4.96641">
        <ele>173.66</ele>
        <time>2019-06-17T10:45:53Z</time>
      </trkpt>
      <trkpt lat="49.63067" lon="4.96656">
        <ele>175.58</ele>
        <time>2019-06-17T10:46:08Z</time>
      </trkpt>
      <trkpt lat="49.63086" lon="4.96673">
        <ele>179.9</ele>
        <time>2019-06-17T10:46:22Z</time>
      </trkpt>
      <trkpt lat="49.63101" lon="4.96687">
        <ele>179.42</ele>
        <time>2019-06-17T10:46:37Z</time>
      </trkpt>
      <trkpt lat="49.63121" lon="4.96708">
        <ele>177.98</ele>
        <time>2019-06-17T10:46:58Z</time>
      </trkpt>
      <trkpt lat="49.63138" lon="4.96721">
        <ele>177.98</ele>
        <time>2019-06-17T10:47:16Z</time>
      </trkpt>
      <trkpt lat="49.63155" lon="4.96734">
        <ele>175.58</ele>
        <time>2019-06-17T10:47:31Z</time>
      </trkpt>
      <trkpt lat="49.63166" lon="4.96744">
        <ele>171.73</ele>
        <time>2019-06-17T10:47:46Z</time>
      </trkpt>
      <trkpt lat="49.63186" lon="4.96761">
        <ele>171.73</ele>
        <time>2019-06-17T10:48:01Z</time>
      </trkpt>
      <trkpt lat="49.63201" lon="4.96777">
        <ele>170.29</ele>
        <time>2019-06-17T10:48:16Z</time>
      </trkpt>
      <trkpt lat="49.63214" lon="4.96794">
        <ele>169.33</ele>
        <time>2019-06-17T10:48:33Z</time>
      </trkpt>
      <trkpt lat="49.63228" lon="4.96815">
        <ele>168.37</ele>
        <time>2019-06-17T10:48:52Z</time>
      </trkpt>
      <trkpt lat="49.63242" lon="4.96836">
        <ele>167.89</ele>
        <time>2019-06-17T10:49:08Z</time>
      </trkpt>
      <trkpt lat="49.63247" lon="4.96845">
        <ele>167.41</ele>
        <time>2019-06-17T10:49:13Z</time>
      </trkpt>
      <trkpt lat="49.63251" lon="4.96853">
        <ele>167.89</ele>
        <time>2019-06-17T10:49:18Z</time>
      </trkpt>
      <trkpt lat="49.63261" lon="4.96874">
        <ele>169.33</ele>
        <time>2019-06-17T10:49:32Z</time>
      </trkpt>
      <trkpt lat="49.6327" lon="4.96896">
        <ele>166.45</ele>
        <time>2019-06-17T10:49:48Z</time>
      </trkpt>
      <trkpt lat="49.63276" lon="4.96917">
        <ele>165.48</ele>
        <time>2019-06-17T10:50:02Z</time>
      </trkpt>
      <trkpt lat="49.63283" lon="4.96946">
        <ele>169.81</ele>
        <time>2019-06-17T10:50:20Z</time>
      </trkpt>
      <trkpt lat="49.63288" lon="4.96971">
        <ele>171.25</ele>
        <time>2019-06-17T10:50:34Z</time>
      </trkpt>
      <trkpt lat="49.63293" lon="4.96994">
        <ele>174.14</ele>
        <time>2019-06-17T10:50:47Z</time>
      </trkpt>
      <trkpt lat="49.63298" lon="4.97017">
        <ele>173.17</ele>
        <time>2019-06-17T10:51:01Z</time>
      </trkpt>
      <trkpt lat="49.63304" lon="4.97037">
        <ele>172.69</ele>
        <time>2019-06-17T10:51:14Z</time>
      </trkpt>
      <trkpt lat="49.63309" lon="4.97063">
        <ele>169.81</ele>
        <time>2019-06-17T10:51:30Z</time>
      </trkpt>
      <trkpt lat="49.63315" lon="4.97084">
        <ele>164.52</ele>
        <time>2019-06-17T10:51:44Z</time>
      </trkpt>
      <trkpt lat="49.63321" lon="4.97103">
        <ele>163.08</ele>
        <time>2019-06-17T10:51:56Z</time>
      </trkpt>
      <trkpt lat="49.63326" lon="4.97126">
        <ele>163.56</ele>
        <time>2019-06-17T10:52:10Z</time>
      </trkpt>
      <trkpt lat="49.63328" lon="4.97131">
        <ele>163.56</ele>
        <time>2019-06-17T10:52:14Z</time>
      </trkpt>
      <trkpt lat="49.63335" lon="4.97163">
        <ele>163.08</ele>
        <time>2019-06-17T10:52:30Z</time>
      </trkpt>
      <trkpt lat="49.63335" lon="4.97165">
        <ele>163.08</ele>
        <time>2019-06-17T10:52:31Z</time>
      </trkpt>
      <trkpt lat="49.63339" lon="4.97178">
        <ele>165.48</ele>
        <time>2019-06-17T10:52:39Z</time>
      </trkpt>
      <trkpt lat="49.63344" lon="4.97202">
        <ele>169.33</ele>
        <time>2019-06-17T10:52:53Z</time>
      </trkpt>
      <trkpt lat="49.63347" lon="4.97218">
        <ele>170.77</ele>
        <time>2019-06-17T10:53:03Z</time>
      </trkpt>
      <trkpt lat="49.63358" lon="4.97241">
        <ele>173.17</ele>
        <time>2019-06-17T10:53:17Z</time>
      </trkpt>
      <trkpt lat="49.63369" lon="4.97264">
        <ele>172.69</ele>
        <time>2019-06-17T10:53:33Z</time>
      </trkpt>
      <trkpt lat="49.63375" lon="4.97275">
        <ele>171.25</ele>
        <time>2019-06-17T10:53:41Z</time>
      </trkpt>
      <trkpt lat="49.63388" lon="4.97292">
        <ele>170.29</ele>
        <time>2019-06-17T10:53:55Z</time>
      </trkpt>
      <trkpt lat="49.63396" lon="4.97311">
        <ele>173.17</ele>
        <time>2019-06-17T10:54:08Z</time>
      </trkpt>
      <trkpt lat="49.63399" lon="4.97319">
        <ele>173.17</ele>
        <time>2019-06-17T10:54:13Z</time>
      </trkpt>
      <trkpt lat="49.63402" lon="4.97326">
        <ele>172.21</ele>
        <time>2019-06-17T10:54:18Z</time>
      </trkpt>
      <trkpt lat="49.63404" lon="4.97329">
        <ele>171.73</ele>
        <time>2019-06-17T10:54:21Z</time>
      </trkpt>
      <trkpt lat="49.63411" lon="4.97344">
        <ele>172.69</ele>
        <time>2019-06-17T10:54:31Z</time>
      </trkpt>
      <trkpt lat="49.63416" lon="4.97356">
        <ele>175.58</ele>
        <time>2019-06-17T10:54:38Z</time>
      </trkpt>
      <trkpt lat="49.63425" lon="4.97375">
        <ele>178.94</ele>
        <time>2019-06-17T10:54:53Z</time>
      </trkpt>
      <trkpt lat="49.63434" lon="4.97391">
        <ele>176.54</ele>
        <time>2019-06-17T10:55:05Z</time>
      </trkpt>
      <trkpt lat="49.63449" lon="4.97412">
        <ele>173.66</ele>
        <time>2019-06-17T10:55:22Z</time>
      </trkpt>
      <trkpt lat="49.63458" lon="4.97432">
        <ele>178.94</ele>
        <time>2019-06-17T10:55:37Z</time>
      </trkpt>
      <trkpt lat="49.6346" lon="4.97436">
        <ele>179.42</ele>
        <time>2019-06-17T10:55:40Z</time>
      </trkpt>
      <trkpt lat="49.63472" lon="4.97459">
        <ele>180.87</ele>
        <time>2019-06-17T10:55:57Z</time>
      </trkpt>
      <trkpt lat="49.63477" lon="4.97465">
        <ele>179.42</ele>
        <time>2019-06-17T10:56:02Z</time>
      </trkpt>
      <trkpt lat="49.63485" lon="4.97478">
        <ele>177.5</ele>
        <time>2019-06-17T10:56:11Z</time>
      </trkpt>
      <trkpt lat="49.63494" lon="4.97489">
        <ele>175.58</ele>
        <time>2019-06-17T10:56:28Z</time>
      </trkpt>
      <trkpt lat="49.63499" lon="4.97497">
        <ele>177.5</ele>
        <time>2019-06-17T10:56:40Z</time>
      </trkpt>
      <trkpt lat="49.63511" lon="4.97518">
        <ele>176.54</ele>
        <time>2019-06-17T10:56:57Z</time>
      </trkpt>
      <trkpt lat="49.63524" lon="4.97541">
        <ele>174.62</ele>
        <time>2019-06-17T10:57:16Z</time>
      </trkpt>
      <trkpt lat="49.63536" lon="4.97561">
        <ele>171.25</ele>
        <time>2019-06-17T10:57:33Z</time>
      </trkpt>
      <trkpt lat="49.63548" lon="4.97578">
        <ele>169.33</ele>
        <time>2019-06-17T10:57:49Z</time>
      </trkpt>
      <trkpt lat="49.6356" lon="4.976">
        <ele>168.37</ele>
        <time>2019-06-17T10:58:05Z</time>
      </trkpt>
      <trkpt lat="49.63569" lon="4.97611">
        <ele>167.89</ele>
        <time>2019-06-17T10:58:14Z</time>
      </trkpt>
      <trkpt lat="49.63581" lon="4.97624">
        <ele>165.96</ele>
        <time>2019-06-17T10:58:29Z</time>
      </trkpt>
      <trkpt lat="49.63591" lon="4.97642">
        <ele>167.41</ele>
        <time>2019-06-17T10:58:43Z</time>
      </trkpt>
      <trkpt lat="49.63599" lon="4.97657">
        <ele>168.37</ele>
        <time>2019-06-17T10:58:55Z</time>
      </trkpt>
      <trkpt lat="49.6359" lon="4.97677">
        <ele>167.89</ele>
        <time>2019-06-17T10:59:11Z</time>
      </trkpt>
      <trkpt lat="49.63589" lon="4.97678">
        <ele>167.41</ele>
        <time>2019-06-17T10:59:13Z</time>
      </trkpt>
      <trkpt lat="49.63575" lon="4.97695">
        <ele>169.33</ele>
        <time>2019-06-17T10:59:31Z</time>
      </trkpt>
      <trkpt lat="49.63562" lon="4.9771">
        <ele>170.29</ele>
        <time>2019-06-17T10:59:47Z</time>
      </trkpt>
      <trkpt lat="49.63548" lon="4.97736">
        <ele>181.35</ele>
        <time>2019-06-17T11:00:03Z</time>
      </trkpt>
      <trkpt lat="49.63539" lon="4.97765">
        <ele>183.75</ele>
        <time>2019-06-17T11:00:19Z</time>
      </trkpt>
      <trkpt lat="49.63529" lon="4.97787">
        <ele>180.87</ele>
        <time>2019-06-17T11:00:37Z</time>
      </trkpt>
      <trkpt lat="49.63517" lon="4.97803">
        <ele>177.98</ele>
        <time>2019-06-17T11:00:54Z</time>
      </trkpt>
      <trkpt lat="49.63502" lon="4.97817">
        <ele>170.29</ele>
        <time>2019-06-17T11:01:10Z</time>
      </trkpt>
      <trkpt lat="49.63494" lon="4.97828">
        <ele>162.12</ele>
        <time>2019-06-17T11:01:22Z</time>
      </trkpt>
      <trkpt lat="49.63485" lon="4.97845">
        <ele>155.87</ele>
        <time>2019-06-17T11:01:37Z</time>
      </trkpt>
      <trkpt lat="49.63477" lon="4.97858">
        <ele>155.39</ele>
        <time>2019-06-17T11:01:49Z</time>
      </trkpt>
      <trkpt lat="49.63463" lon="4.97876">
        <ele>155.39</ele>
        <time>2019-06-17T11:02:04Z</time>
      </trkpt>
      <trkpt lat="49.63456" lon="4.97889">
        <ele>152.03</ele>
        <time>2019-06-17T11:02:16Z</time>
      </trkpt>
      <trkpt lat="49.63438" lon="4.97897">
        <ele>154.43</ele>
        <time>2019-06-17T11:02:32Z</time>
      </trkpt>
      <trkpt lat="49.63432" lon="4.97901">
        <ele>157.31</ele>
        <time>2019-06-17T11:02:40Z</time>
      </trkpt>
      <trkpt lat="49.63417" lon="4.97912">
        <ele>160.2</ele>
        <time>2019-06-17T11:02:56Z</time>
      </trkpt>
      <trkpt lat="49.63404" lon="4.97926">
        <ele>162.12</ele>
        <time>2019-06-17T11:03:11Z</time>
      </trkpt>
      <trkpt lat="49.63403" lon="4.97927">
        <ele>162.12</ele>
        <time>2019-06-17T11:03:13Z</time>
      </trkpt>
      <trkpt lat="49.6339" lon="4.9794">
        <ele>161.64</ele>
        <time>2019-06-17T11:03:29Z</time>
      </trkpt>
      <trkpt lat="49.63389" lon="4.97949">
        <ele>163.08</ele>
        <time>2019-06-17T11:03:39Z</time>
      </trkpt>
      <trkpt lat="49.6339" lon="4.97954">
        <ele>164.52</ele>
        <time>2019-06-17T11:03:42Z</time>
      </trkpt>
      <trkpt lat="49.63396" lon="4.97972">
        <ele>169.33</ele>
        <time>2019-06-17T11:03:55Z</time>
      </trkpt>
      <trkpt lat="49.63402" lon="4.97984">
        <ele>172.21</ele>
        <time>2019-06-17T11:04:04Z</time>
      </trkpt>
      <trkpt lat="49.63413" lon="4.98005">
        <ele>177.02</ele>
        <time>2019-06-17T11:04:20Z</time>
      </trkpt>
      <trkpt lat="49.63422" lon="4.98021">
        <ele>180.87</ele>
        <time>2019-06-17T11:04:34Z</time>
      </trkpt>
      <trkpt lat="49.63432" lon="4.98039">
        <ele>185.67</ele>
        <time>2019-06-17T11:04:49Z</time>
      </trkpt>
      <trkpt lat="49.63447" lon="4.98055">
        <ele>187.59</ele>
        <time>2019-06-17T11:05:06Z</time>
      </trkpt>
      <trkpt lat="49.6345" lon="4.98055">
        <ele>188.56</ele>
        <time>2019-06-17T11:05:20Z</time>
      </trkpt>
      <trkpt lat="49.6345" lon="4.98055">
        <ele>188.56</ele>
        <time>2019-06-17T11:05:21Z</time>
      </trkpt>
    </trkseg>
  </trk>
</gpx>